Observation data for McCamey on 07/11/2018      Previous  Date       Current Mesonet Observations  Soil Data  Daily Summary Page  Observations in Plain Language
KMC4 110501Z 14006KT 26/14 A301 RMK A01 T02610144  RH  049%=      5-min Rain = 0
KMC4 110502Z 14006KT 26/15 A301 RMK A01 T02600145  RH  049%=      5-min Rain = 0
KMC4 110503Z 14006KT 26/15 A301 RMK A01 T02600145  RH  049%=      5-min Rain = 0
KMC4 110504Z 14006KT 26/14 A301 RMK A01 T02590144  RH  049%=      5-min Rain = 0
KMC4 110505Z 14007KT 26/15 A301 RMK A01 T02590145  RH  049%=      5-min Rain = 0
KMC4 110506Z 14006KT 26/15 A301 RMK A01 T02590145  RH  049%=      5-min Rain = 0
KMC4 110507Z 14006KT 26/14 A301 RMK A01 T02580144  RH  049%=      5-min Rain = 0
KMC4 110508Z 14006KT 26/15 A301 RMK A01 T02580145  RH  049%=      5-min Rain = 0
KMC4 110509Z 14006KT 26/15 A301 RMK A01 T02590145  RH  050%=      5-min Rain = 0
KMC4 110510Z 14006KT 26/15 A3011 RMK A01 T02580145  RH  050%=      5-min Rain = 0
KMC4 110511Z 14005KT 26/15 A3011 RMK A01 T02580145  RH  050%=      5-min Rain = 0
KMC4 110512Z 14006KT 26/15 A3011 RMK A01 T02580146  RH  050%=      5-min Rain = 0
KMC4 110513Z 13006KT 26/15 A3011 RMK A01 T02580145  RH  050%=      5-min Rain = 0
KMC4 110514Z 13005KT 26/15 A3011 RMK A01 T02580145  RH  050%=      5-min Rain = 0
KMC4 110515Z 13005KT 26/15 A3011 RMK A01 T02570145  RH  050%=      5-min Rain = 0
KMC4 110516Z 13005KT 26/15 A3011 RMK A01 T02570145  RH  050%=      5-min Rain = 0
KMC4 110517Z 13005KT 26/15 A3011 RMK A01 T02570145  RH  050%=      5-min Rain = 0
KMC4 110518Z 13005KT 26/15 A3011 RMK A01 T02570145  RH  050%=      5-min Rain = 0
KMC4 110519Z 13004KT 26/15 A3011 RMK A01 T02570145  RH  050%=      5-min Rain = 0
KMC4 110520Z 13005KT 26/15 A3011 RMK A01 T02580146  RH  050%=      5-min Rain = 0
KMC4 110521Z 13005KT 26/15 A3011 RMK A01 T02580145  RH  050%=      5-min Rain = 0
KMC4 110522Z 13005KT 26/15 A3011 RMK A01 T02580145  RH  050%=      5-min Rain = 0
KMC4 110523Z 13004KT 26/15 A3011 RMK A01 T02570145  RH  050%=      5-min Rain = 0
KMC4 110524Z 13004KT 26/15 A3011 RMK A01 T02580146  RH  050%=      5-min Rain = 0
KMC4 110525Z 13004KT 26/15 A3011 RMK A01 T02570146  RH  050%=      5-min Rain = 0
KMC4 110526Z 13004KT 26/15 A3011 RMK A01 T02570146  RH  050%=      5-min Rain = 0
KMC4 110527Z 13004KT 26/15 A3011 RMK A01 T02570146  RH  050%=      5-min Rain = 0
KMC4 110528Z 12004KT 26/15 A3011 RMK A01 T02570146  RH  050%=      5-min Rain = 0
KMC4 110529Z 12004KT 26/15 A3011 RMK A01 T02570146  RH  050%=      5-min Rain = 0
KMC4 110530Z 12005KT 26/15 A3011 RMK A01 T02570146  RH  050%=      5-min Rain = 0
KMC4 110531Z 12005KT 26/15 A3011 RMK A01 T02580146  RH  050%=      5-min Rain = 0
KMC4 110532Z 12004KT 26/15 A3011 RMK A01 T02570147  RH  050%=      5-min Rain = 0
KMC4 110533Z 12005KT 26/15 A3011 RMK A01 T02570146  RH  050%=      5-min Rain = 0
KMC4 110534Z 13005KT 26/15 A3011 RMK A01 T02570146  RH  050%=      5-min Rain = 0
KMC4 110535Z 13005KT 26/15 A3011 RMK A01 T02580147  RH  050%=      5-min Rain = 0
KMC4 110536Z 12005KT 26/15 A3011 RMK A01 T02580147  RH  050%=      5-min Rain = 0
KMC4 110537Z 13005KT 26/15 A3011 RMK A01 T02580146  RH  050%=      5-min Rain = 0
KMC4 110538Z 13005KT 26/15 A3011 RMK A01 T02580146  RH  050%=      5-min Rain = 0
KMC4 110539Z 13005KT 26/15 A3011 RMK A01 T02580146  RH  050%=      5-min Rain = 0
KMC4 110540Z 12006KT 26/15 A3011 RMK A01 T02580148  RH  051%=      5-min Rain = 0
KMC4 110541Z 13005KT 26/15 A3011 RMK A01 T02580147  RH  051%=      5-min Rain = 0
KMC4 110542Z 13005KT 26/15 A3011 RMK A01 T02580148  RH  051%=      5-min Rain = 0
KMC4 110543Z 13006KT 26/15 A3011 RMK A01 T02570148  RH  051%=      5-min Rain = 0
KMC4 110544Z 13005KT 26/15 A301 RMK A01 T02570147  RH  051%=      5-min Rain = 0
KMC4 110545Z 13006KT 26/15 A301 RMK A01 T02570146  RH  050%=      5-min Rain = 0
KMC4 110546Z 13005KT 26/15 A301 RMK A01 T02570147  RH  050%=      5-min Rain = 0
KMC4 110547Z 13005KT 26/15 A301 RMK A01 T02580149  RH  051%=      5-min Rain = 0
KMC4 110548Z 13005KT 26/15 A301 RMK A01 T02570147  RH  051%=      5-min Rain = 0
KMC4 110549Z 13005KT 26/15 A301 RMK A01 T02570148  RH  051%=      5-min Rain = 0
KMC4 110550Z 13005KT 26/15 A301 RMK A01 T02570148  RH  051%=      5-min Rain = 0
KMC4 110551Z 13005KT 26/15 A301 RMK A01 T02570148  RH  051%=      5-min Rain = 0
KMC4 110552Z 12005KT 26/15 A301 RMK A01 T02570148  RH  051%=      5-min Rain = 0
KMC4 110553Z 13005KT 26/15 A301 RMK A01 T02560148  RH  051%=      5-min Rain = 0
KMC4 110554Z 13006KT 26/15 A301 RMK A01 T02560147  RH  051%=      5-min Rain = 0
KMC4 110555Z 12005KT 26/15 A301 RMK A01 T02570146  RH  050%=      5-min Rain = 0
KMC4 110556Z 13005KT 26/15 A301 RMK A01 T02570146  RH  050%=      5-min Rain = 0
KMC4 110557Z 12004KT 26/15 A301 RMK A01 T02580147  RH  050%=      5-min Rain = 0
KMC4 110558Z 13005KT 26/15 A301 RMK A01 T02580147  RH  050%=      5-min Rain = 0
KMC4 110559Z 12005KT 26/15 A301 RMK A01 T02580147  RH  050%=      5-min Rain = 0
KMC4 110600Z 13005KT 26/15 A301 RMK A01 T02580147  RH  050%=      5-min Rain = 0
KMC4 110601Z 12005KT 26/15 A301 RMK A01 T02580147  RH  050%=      5-min Rain = 0
KMC4 110602Z 12005KT 26/15 A301 RMK A01 T02590148  RH  051%=      5-min Rain = 0
KMC4 110603Z 12005KT 26/15 A301 RMK A01 T02580147  RH  050%=      5-min Rain = 0
KMC4 110604Z 12004KT 26/15 A301 RMK A01 T02590148  RH  050%=      5-min Rain = 0
KMC4 110605Z 12004KT 26/15 A301 RMK A01 T02580149  RH  051%=      5-min Rain = 0
KMC4 110606Z 11004KT 26/15 A301 RMK A01 T02580150  RH  051%=      5-min Rain = 0
KMC4 110607Z 12004KT 26/15 A301 RMK A01 T02580149  RH  051%=      5-min Rain = 0
KMC4 110608Z 12004KT 26/15 A301 RMK A01 T02570148  RH  051%=      5-min Rain = 0
KMC4 110609Z 12005KT 26/15 A301 RMK A01 T02570148  RH  051%=      5-min Rain = 0
KMC4 110610Z 12005KT 26/15 A301 RMK A01 T02580149  RH  051%=      5-min Rain = 0
KMC4 110611Z 12006KT 26/15 A301 RMK A01 T02580149  RH  051%=      5-min Rain = 0
KMC4 110612Z 12005KT 26/15 A301 RMK A01 T02590148  RH  051%=      5-min Rain = 0
KMC4 110613Z 12005KT 26/15 A301 RMK A01 T02590150  RH  051%=      5-min Rain = 0
KMC4 110614Z 12006KT 26/15 A301 RMK A01 T02590150  RH  051%=      5-min Rain = 0
KMC4 110615Z 13005KT 26/15 A301 RMK A01 T02580149  RH  051%=      5-min Rain = 0
KMC4 110616Z 13005KT 26/15 A301 RMK A01 T02580150  RH  051%=      5-min Rain = 0
KMC4 110617Z 13006KT 26/15 A301 RMK A01 T02580150  RH  051%=      5-min Rain = 0
KMC4 110618Z 13006KT 26/15 A301 RMK A01 T02580150  RH  051%=      5-min Rain = 0
KMC4 110619Z 13005KT 26/15 A301 RMK A01 T02580150  RH  051%=      5-min Rain = 0
KMC4 110620Z 13005KT 26/15 A301 RMK A01 T02580151  RH  052%=      5-min Rain = 0
KMC4 110621Z 13005KT 26/15 A301 RMK A01 T02570151  RH  052%=      5-min Rain = 0
KMC4 110622Z 14005KT 26/15 A301 RMK A01 T02560152  RH  053%=      5-min Rain = 0
KMC4 110623Z 14006KT 26/15 A301 RMK A01 T02550151  RH  052%=      5-min Rain = 0
KMC4 110624Z 14006KT 26/15 A301 RMK A01 T02550152  RH  053%=      5-min Rain = 0
KMC4 110625Z 13005KT 25/15 A301 RMK A01 T02540153  RH  053%=      5-min Rain = 0
KMC4 110626Z 14005KT 25/15 A301 RMK A01 T02530152  RH  053%=      5-min Rain = 0
KMC4 110627Z 13005KT 25/15 A301 RMK A01 T02530152  RH  053%=      5-min Rain = 0
KMC4 110628Z 14005KT 25/15 A301 RMK A01 T02520152  RH  054%=      5-min Rain = 0
KMC4 110629Z 13006KT 25/15 A301 RMK A01 T02520152  RH  054%=      5-min Rain = 0
KMC4 110630Z 14006KT 25/15 A301 RMK A01 T02520151  RH  054%=      5-min Rain = 0
KMC4 110631Z 14006KT 25/15 A301 RMK A01 T02520151  RH  053%=      5-min Rain = 0
KMC4 110632Z 14006KT 25/15 A301 RMK A01 T02530151  RH  053%=      5-min Rain = 0
KMC4 110633Z 13005KT 25/15 A301 RMK A01 T02530152  RH  053%=      5-min Rain = 0
KMC4 110634Z 13007KT 25/15 A301 RMK A01 T02530152  RH  053%=      5-min Rain = 0
KMC4 110635Z 13005KT 25/15 A301 RMK A01 T02540152  RH  053%=      5-min Rain = 0
KMC4 110636Z 13006KT 25/15 A301 RMK A01 T02540153  RH  053%=      5-min Rain = 0
KMC4 110637Z 14006KT 25/15 A301 RMK A01 T02530153  RH  054%=      5-min Rain = 0
KMC4 110638Z 14006KT 25/15 A301 RMK A01 T02530153  RH  054%=      5-min Rain = 0
KMC4 110639Z 13006KT 25/15 A301 RMK A01 T02530152  RH  054%=      5-min Rain = 0
KMC4 110640Z 14006KT 25/15 A301 RMK A01 T02530153  RH  054%=      5-min Rain = 0
KMC4 110641Z 14006KT 25/15 A301 RMK A01 T02530154  RH  054%=      5-min Rain = 0
KMC4 110642Z 14006KT 25/15 A301 RMK A01 T02530154  RH  054%=      5-min Rain = 0
KMC4 110643Z 13006KT 25/15 A301 RMK A01 T02530154  RH  054%=      5-min Rain = 0
KMC4 110644Z 13007KT 25/15 A301 RMK A01 T02520154  RH  054%=      5-min Rain = 0
KMC4 110645Z 13007KT 25/15 A301 RMK A01 T02530154  RH  054%=      5-min Rain = 0
KMC4 110646Z 13007KT 25/15 A301 RMK A01 T02520154  RH  055%=      5-min Rain = 0
KMC4 110647Z 14007KT 25/15 A301 RMK A01 T02520153  RH  054%=      5-min Rain = 0
KMC4 110648Z 13007KT 25/15 A301 RMK A01 T02520154  RH  055%=      5-min Rain = 0
KMC4 110649Z 13008KT 25/15 A301 RMK A01 T02520153  RH  054%=      5-min Rain = 0
KMC4 110650Z 13009KT 25/15 A301 RMK A01 T02530153  RH  054%=      5-min Rain = 0
KMC4 110651Z 13010KT 25/15 A301 RMK A01 T02540153  RH  054%=      5-min Rain = 0
KMC4 110652Z 14008KT 26/15 A301 RMK A01 T02550154  RH  054%=      5-min Rain = 0
KMC4 110653Z 14008KT 26/16 A301 RMK A01 T02550155  RH  054%=      5-min Rain = 0
KMC4 110654Z 14008KT 26/15 A301 RMK A01 T02550154  RH  054%=      5-min Rain = 0
KMC4 110655Z 14008KT 26/15 A301 RMK A01 T02560154  RH  053%=      5-min Rain = 0
KMC4 110656Z 14008KT 26/15 A301 RMK A01 T02560154  RH  053%=      5-min Rain = 0
KMC4 110657Z 14007KT 26/16 A301 RMK A01 T02560155  RH  054%=      5-min Rain = 0
KMC4 110658Z 14008KT 26/16 A301 RMK A01 T02550155  RH  054%=      5-min Rain = 0
KMC4 110659Z 14008KT 26/16 A301 RMK A01 T02550155  RH  054%=      5-min Rain = 0
KMC4 110700Z 14008KT 26/16 A301 RMK A01 T02550155  RH  054%=      5-min Rain = 0
KMC4 110701Z 14008KT 26/16 A301 RMK A01 T02550155  RH  054%=      5-min Rain = 0
KMC4 110702Z 14007KT 26/16 A301 RMK A01 T02550156  RH  054%=      5-min Rain = 0
KMC4 110703Z 14009KT 26/16 A301 RMK A01 T02550155  RH  054%=      5-min Rain = 0
KMC4 110704Z 14008KT 26/15 A301 RMK A01 T02550154  RH  054%=      5-min Rain = 0
KMC4 110705Z 14008KT 26/16 A301 RMK A01 T02560156  RH  054%=      5-min Rain = 0
KMC4 110706Z 14008KT 26/16 A301 RMK A01 T02560156  RH  054%=      5-min Rain = 0
KMC4 110707Z 14008KT 26/16 A301 RMK A01 T02560156  RH  054%=      5-min Rain = 0
KMC4 110708Z 14008KT 26/16 A301 RMK A01 T02550156  RH  054%=      5-min Rain = 0
KMC4 110709Z 14007KT 26/16 A301 RMK A01 T02550156  RH  054%=      5-min Rain = 0
KMC4 110710Z 14007KT 26/16 A301 RMK A01 T02550157  RH  055%=      5-min Rain = 0
KMC4 110711Z 14009KT 25/16 A301 RMK A01 T02540156  RH  055%=      5-min Rain = 0
KMC4 110712Z 14009KT 26/16 A301 RMK A01 T02550157  RH  055%=      5-min Rain = 0
KMC4 110713Z 14009KT 26/16 A301 RMK A01 T02550156  RH  054%=      5-min Rain = 0
KMC4 110714Z 14008KT 26/16 A301 RMK A01 T02550156  RH  054%=      5-min Rain = 0
KMC4 110715Z 14008KT 26/16 A301 RMK A01 T02550156  RH  054%=      5-min Rain = 0
KMC4 110716Z 14009KT 26/16 A301 RMK A01 T02550156  RH  054%=      5-min Rain = 0
KMC4 110717Z 14008KT 26/16 A301 RMK A01 T02550157  RH  055%=      5-min Rain = 0
KMC4 110718Z 14008KT 26/16 A301 RMK A01 T02550157  RH  055%=      5-min Rain = 0
KMC4 110719Z 14008KT 26/16 A301 RMK A01 T02550157  RH  055%=      5-min Rain = 0
KMC4 110720Z 14008KT 25/16 A301 RMK A01 T02540157  RH  055%=      5-min Rain = 0
KMC4 110721Z 14008KT 25/16 A301 RMK A01 T02540157  RH  055%=      5-min Rain = 0
KMC4 110722Z 14008KT 25/16 A301 RMK A01 T02540158  RH  055%=      5-min Rain = 0
KMC4 110723Z 14010KT 25/16 A301 RMK A01 T02540157  RH  055%=      5-min Rain = 0
KMC4 110724Z 14008KT 25/16 A301 RMK A01 T02540157  RH  055%=      5-min Rain = 0
KMC4 110725Z 14008KT 25/16 A301 RMK A01 T02540157  RH  055%=      5-min Rain = 0
KMC4 110726Z 14007KT 25/16 A301 RMK A01 T02540157  RH  055%=      5-min Rain = 0
KMC4 110727Z 14007KT 25/16 A301 RMK A01 T02540157  RH  055%=      5-min Rain = 0
KMC4 110728Z 14008KT 25/16 A301 RMK A01 T02540158  RH  055%=      5-min Rain = 0
KMC4 110729Z 14007KT 25/16 A301 RMK A01 T02530158  RH  055%=      5-min Rain = 0
KMC4 110730Z 14007KT 25/16 A301 RMK A01 T02530159  RH  056%=      5-min Rain = 0
KMC4 110731Z 14007KT 25/16 A301 RMK A01 T02520158  RH  056%=      5-min Rain = 0
KMC4 110732Z 14007KT 25/16 A301 RMK A01 T02520159  RH  056%=      5-min Rain = 0
KMC4 110733Z 14008KT 25/16 A301 RMK A01 T02510158  RH  056%=      5-min Rain = 0
KMC4 110734Z 13007KT 25/16 A301 RMK A01 T02520158  RH  056%=      5-min Rain = 0
KMC4 110735Z 14007KT 25/16 A301 RMK A01 T02520158  RH  056%=      5-min Rain = 0
KMC4 110736Z 13007KT 25/16 A301 RMK A01 T02520159  RH  056%=      5-min Rain = 0
KMC4 110737Z 13008KT 25/16 A301 RMK A01 T02510159  RH  057%=      5-min Rain = 0
KMC4 110738Z 14007KT 25/16 A301 RMK A01 T02510159  RH  057%=      5-min Rain = 0
KMC4 110739Z 13007KT 25/16 A301 RMK A01 T02500159  RH  057%=      5-min Rain = 0
KMC4 110740Z 13008KT 25/16 A301 RMK A01 T02500159  RH  057%=      5-min Rain = 0
KMC4 110741Z 13007KT 25/16 A3009 RMK A01 T02500159  RH  057%=      5-min Rain = 0
KMC4 110742Z 13007KT 25/16 A301 RMK A01 T02490159  RH  057%=      5-min Rain = 0
KMC4 110743Z 13008KT 25/16 A3009 RMK A01 T02490159  RH  057%=      5-min Rain = 0
KMC4 110744Z 13007KT 25/16 A3009 RMK A01 T02490159  RH  057%=      5-min Rain = 0
KMC4 110745Z 13007KT 25/16 A3009 RMK A01 T02490159  RH  058%=      5-min Rain = 0
KMC4 110746Z 13007KT 25/16 A3009 RMK A01 T02490159  RH  057%=      5-min Rain = 0
KMC4 110747Z 13007KT 25/16 A3009 RMK A01 T02490160  RH  058%=      5-min Rain = 0
KMC4 110748Z 13007KT 25/16 A3009 RMK A01 T02490159  RH  057%=      5-min Rain = 0
KMC4 110749Z 13007KT 25/16 A3009 RMK A01 T02490160  RH  057%=      5-min Rain = 0
KMC4 110750Z 13007KT 25/16 A3009 RMK A01 T02490159  RH  057%=      5-min Rain = 0
KMC4 110751Z 13008KT 25/16 A3009 RMK A01 T02490159  RH  057%=      5-min Rain = 0
KMC4 110752Z 13007KT 25/16 A3009 RMK A01 T02490159  RH  057%=      5-min Rain = 0
KMC4 110753Z 13008KT 25/16 A3009 RMK A01 T02490159  RH  057%=      5-min Rain = 0
KMC4 110754Z 12008KT 25/16 A3009 RMK A01 T02500160  RH  057%=      5-min Rain = 0
KMC4 110755Z 12008KT 25/16 A3009 RMK A01 T02490160  RH  057%=      5-min Rain = 0
KMC4 110756Z 12008KT 25/16 A3009 RMK A01 T02490160  RH  057%=      5-min Rain = 0
KMC4 110757Z 12008KT 25/16 A3009 RMK A01 T02490160  RH  057%=      5-min Rain = 0
KMC4 110758Z 12008KT 25/16 A3009 RMK A01 T02490159  RH  057%=      5-min Rain = 0
KMC4 110759Z 13009KT 25/16 A3009 RMK A01 T02500160  RH  057%=      5-min Rain = 0
KMC4 110800Z 13008KT 25/16 A3009 RMK A01 T02500160  RH  057%=      5-min Rain = 0
KMC4 110801Z 12008KT 25/16 A3009 RMK A01 T02500161  RH  057%=      5-min Rain = 0
KMC4 110802Z 13009KT 25/16 A3009 RMK A01 T02500160  RH  057%=      5-min Rain = 0
KMC4 110803Z 12007KT 25/16 A3009 RMK A01 T02500161  RH  058%=      5-min Rain = 0
KMC4 110804Z 13008KT 25/16 A3009 RMK A01 T02500161  RH  058%=      5-min Rain = 0
KMC4 110805Z 13007KT 25/16 A3009 RMK A01 T02490161  RH  058%=      5-min Rain = 0
KMC4 110806Z 13010KT 25/16 A3009 RMK A01 T02490161  RH  058%=      5-min Rain = 0
KMC4 110807Z 13008KT 25/16 A3009 RMK A01 T02480160  RH  058%=      5-min Rain = 0
KMC4 110808Z 13009KT 25/16 A3009 RMK A01 T02490161  RH  058%=      5-min Rain = 0
KMC4 110809Z 13009KT 25/16 A3009 RMK A01 T02490161  RH  058%=      5-min Rain = 0
KMC4 110810Z 13009KT 25/16 A3009 RMK A01 T02490162  RH  058%=      5-min Rain = 0
KMC4 110811Z 13009KT 25/16 A3009 RMK A01 T02490162  RH  058%=      5-min Rain = 0
KMC4 110812Z 13010KT 25/16 A3009 RMK A01 T02490162  RH  058%=      5-min Rain = 0
KMC4 110813Z 13009KT 25/16 A3009 RMK A01 T02490161  RH  058%=      5-min Rain = 0
KMC4 110814Z 13008KT 25/16 A3009 RMK A01 T02490162  RH  058%=      5-min Rain = 0
KMC4 110815Z 13009KT 25/16 A3009 RMK A01 T02490162  RH  059%=      5-min Rain = 0
KMC4 110816Z 13008KT 25/16 A3009 RMK A01 T02490163  RH  059%=      5-min Rain = 0
KMC4 110817Z 13009KT 25/16 A3009 RMK A01 T02480163  RH  059%=      5-min Rain = 0
KMC4 110818Z 13010KT 25/16 A3009 RMK A01 T02470162  RH  059%=      5-min Rain = 0
KMC4 110819Z 13009KT 25/16 A3009 RMK A01 T02470162  RH  059%=      5-min Rain = 0
KMC4 110820Z 13009KT 25/16 A3009 RMK A01 T02470162  RH  059%=      5-min Rain = 0
KMC4 110821Z 13009KT 25/16 A3009 RMK A01 T02470162  RH  059%=      5-min Rain = 0
KMC4 110822Z 14009KT 25/16 A3009 RMK A01 T02480163  RH  059%=      5-min Rain = 0
KMC4 110823Z 13009KT 25/16 A3009 RMK A01 T02480163  RH  059%=      5-min Rain = 0
KMC4 110824Z 14009KT 25/16 A3009 RMK A01 T02480162  RH  059%=      5-min Rain = 0
KMC4 110825Z 14009KT 25/16 A3009 RMK A01 T02480163  RH  059%=      5-min Rain = 0
KMC4 110826Z 14009KT 25/16 A3009 RMK A01 T02480163  RH  059%=      5-min Rain = 0
KMC4 110827Z 14008KT 25/16 A3009 RMK A01 T02480163  RH  059%=      5-min Rain = 0
KMC4 110828Z 14008KT 25/16 A3009 RMK A01 T02470164  RH  060%=      5-min Rain = 0
KMC4 110829Z 14008KT 25/16 A3009 RMK A01 T02470164  RH  060%=      5-min Rain = 0
KMC4 110830Z 14008KT 25/16 A3009 RMK A01 T02460164  RH  060%=      5-min Rain = 0
KMC4 110831Z 14008KT 25/16 A3009 RMK A01 T02460163  RH  060%=      5-min Rain = 0
KMC4 110832Z 14008KT 25/16 A3009 RMK A01 T02460163  RH  060%=      5-min Rain = 0
KMC4 110833Z 14010KT 25/16 A3009 RMK A01 T02470164  RH  060%=      5-min Rain = 0
KMC4 110834Z 14008KT 25/16 A3009 RMK A01 T02460164  RH  060%=      5-min Rain = 0
KMC4 110835Z 14009KT 25/16 A3009 RMK A01 T02460164  RH  060%=      5-min Rain = 0
KMC4 110836Z 14009KT 25/16 A3009 RMK A01 T02470164  RH  060%=      5-min Rain = 0
KMC4 110837Z 14009KT 25/16 A3009 RMK A01 T02460164  RH  060%=      5-min Rain = 0
KMC4 110838Z 14009KT 25/16 A3009 RMK A01 T02470164  RH  060%=      5-min Rain = 0
KMC4 110839Z 14008KT 25/16 A3009 RMK A01 T02470164  RH  060%=      5-min Rain = 0
KMC4 110840Z 14008KT 25/17 A3009 RMK A01 T02460165  RH  061%=      5-min Rain = 0
KMC4 110841Z 14007KT 25/17 A3009 RMK A01 T02460165  RH  061%=      5-min Rain = 0
KMC4 110842Z 14007KT 25/17 A3009 RMK A01 T02450165  RH  061%=      5-min Rain = 0
KMC4 110843Z 13007KT 25/17 A3009 RMK A01 T02450165  RH  061%=      5-min Rain = 0
KMC4 110844Z 14008KT 25/17 A3009 RMK A01 T02450165  RH  061%=      5-min Rain = 0
KMC4 110845Z 14008KT 25/17 A3009 RMK A01 T02450165  RH  061%=      5-min Rain = 0
KMC4 110846Z 14007KT 25/17 A3009 RMK A01 T02450165  RH  061%=      5-min Rain = 0
KMC4 110847Z 14008KT 25/17 A3009 RMK A01 T02450165  RH  061%=      5-min Rain = 0
KMC4 110848Z 14007KT 25/17 A3009 RMK A01 T02450165  RH  061%=      5-min Rain = 0
KMC4 110849Z 13007KT 25/17 A3009 RMK A01 T02450165  RH  061%=      5-min Rain = 0
KMC4 110850Z 13006KT 25/17 A3009 RMK A01 T02450165  RH  061%=      5-min Rain = 0
KMC4 110851Z 14007KT 25/17 A3009 RMK A01 T02450165  RH  061%=      5-min Rain = 0
KMC4 110852Z 13008KT 25/17 A3009 RMK A01 T02450165  RH  061%=      5-min Rain = 0
KMC4 110853Z 13006KT 25/17 A3009 RMK A01 T02450166  RH  061%=      5-min Rain = 0
KMC4 110854Z 14007KT 25/17 A3009 RMK A01 T02450166  RH  061%=      5-min Rain = 0
KMC4 110855Z 13007KT 25/17 A3009 RMK A01 T02450166  RH  061%=      5-min Rain = 0
KMC4 110856Z 12007KT 25/17 A3009 RMK A01 T02450166  RH  061%=      5-min Rain = 0
KMC4 110857Z 13006KT 25/17 A3009 RMK A01 T02450166  RH  061%=      5-min Rain = 0
KMC4 110858Z 13006KT 25/17 A3009 RMK A01 T02450166  RH  061%=      5-min Rain = 0
KMC4 110859Z 13006KT 25/17 A3009 RMK A01 T02450166  RH  061%=      5-min Rain = 0
KMC4 110900Z 12005KT 25/17 A3009 RMK A01 T02460167  RH  061%=      5-min Rain = 0
KMC4 110901Z 13006KT 25/17 A3009 RMK A01 T02460167  RH  062%=      5-min Rain = 0
KMC4 110902Z 13006KT 25/17 A3009 RMK A01 T02460167  RH  062%=      5-min Rain = 0
KMC4 110903Z 12006KT 25/17 A3009 RMK A01 T02450168  RH  062%=      5-min Rain = 0
KMC4 110904Z 12006KT 25/17 A3009 RMK A01 T02450168  RH  062%=      5-min Rain = 0
KMC4 110905Z 12006KT 25/17 A3009 RMK A01 T02450168  RH  062%=      5-min Rain = 0
KMC4 110906Z 12005KT 25/17 A3009 RMK A01 T02450168  RH  062%=      5-min Rain = 0
KMC4 110907Z 11005KT 25/17 A3009 RMK A01 T02450168  RH  062%=      5-min Rain = 0
KMC4 110908Z 12006KT 25/17 A301 RMK A01 T02450167  RH  062%=      5-min Rain = 0
KMC4 110909Z 11006KT 25/17 A301 RMK A01 T02450168  RH  062%=      5-min Rain = 0
KMC4 110910Z 11005KT 25/17 A301 RMK A01 T02460168  RH  062%=      5-min Rain = 0
KMC4 110911Z 12005KT 25/17 A301 RMK A01 T02460168  RH  062%=      5-min Rain = 0
KMC4 110912Z 12005KT 25/17 A301 RMK A01 T02460168  RH  062%=      5-min Rain = 0
KMC4 110913Z 12005KT 25/17 A301 RMK A01 T02460168  RH  062%=      5-min Rain = 0
KMC4 110914Z 12004KT 25/17 A3009 RMK A01 T02460168  RH  062%=      5-min Rain = 0
KMC4 110915Z 12004KT 25/17 A3009 RMK A01 T02460168  RH  062%=      5-min Rain = 0
KMC4 110916Z 11004KT 25/17 A3009 RMK A01 T02460169  RH  062%=      5-min Rain = 0
KMC4 110917Z 11003KT 25/17 A301 RMK A01 T02450168  RH  062%=      5-min Rain = 0
KMC4 110918Z 11004KT 25/17 A301 RMK A01 T02450169  RH  062%=      5-min Rain = 0
KMC4 110919Z 10004KT 25/17 A301 RMK A01 T02450168  RH  062%=      5-min Rain = 0
KMC4 110920Z 10004KT 25/17 A301 RMK A01 T02450169  RH  062%=      5-min Rain = 0
KMC4 110921Z 10004KT 25/17 A301 RMK A01 T02450169  RH  062%=      5-min Rain = 0
KMC4 110922Z 11005KT 25/17 A301 RMK A01 T02450168  RH  062%=      5-min Rain = 0
KMC4 110923Z 10006KT 25/17 A301 RMK A01 T02450169  RH  062%=      5-min Rain = 0
KMC4 110924Z 10005KT 25/17 A301 RMK A01 T02450169  RH  062%=      5-min Rain = 0
KMC4 110925Z 11005KT 25/17 A301 RMK A01 T02460169  RH  062%=      5-min Rain = 0
KMC4 110926Z 10005KT 25/17 A301 RMK A01 T02450169  RH  063%=      5-min Rain = 0
KMC4 110927Z 11005KT 25/17 A301 RMK A01 T02450169  RH  062%=      5-min Rain = 0
KMC4 110928Z 10004KT 25/17 A301 RMK A01 T02450169  RH  063%=      5-min Rain = 0
KMC4 110929Z 11006KT 25/17 A3009 RMK A01 T02450169  RH  063%=      5-min Rain = 0
KMC4 110930Z 09004KT 25/17 A3009 RMK A01 T02450169  RH  063%=      5-min Rain = 0
KMC4 110931Z 09006KT 25/17 A301 RMK A01 T02450169  RH  063%=      5-min Rain = 0
KMC4 110932Z 09005KT 25/17 A3009 RMK A01 T02450169  RH  063%=      5-min Rain = 0
KMC4 110933Z 10006KT 25/17 A3009 RMK A01 T02450170  RH  063%=      5-min Rain = 0
KMC4 110934Z 10006KT 25/17 A3009 RMK A01 T02450170  RH  063%=      5-min Rain = 0
KMC4 110935Z 10005KT 25/17 A3009 RMK A01 T02450170  RH  063%=      5-min Rain = 0
KMC4 110936Z 09005KT 25/17 A3009 RMK A01 T02450171  RH  063%=      5-min Rain = 0
KMC4 110937Z 10005KT 24/17 A3009 RMK A01 T02440170  RH  063%=      5-min Rain = 0
KMC4 110938Z 10005KT 24/17 A3009 RMK A01 T02440170  RH  063%=      5-min Rain = 0
KMC4 110939Z 10005KT 24/17 A3009 RMK A01 T02440170  RH  063%=      5-min Rain = 0
KMC4 110940Z 10004KT 24/17 A3009 RMK A01 T02440170  RH  063%=      5-min Rain = 0
KMC4 110941Z 10005KT 24/17 A3009 RMK A01 T02440171  RH  063%=      5-min Rain = 0
KMC4 110942Z 10005KT 24/17 A3009 RMK A01 T02440171  RH  064%=      5-min Rain = 0
KMC4 110943Z 11006KT 24/17 A3009 RMK A01 T02440171  RH  064%=      5-min Rain = 0
KMC4 110944Z 11006KT 24/17 A3009 RMK A01 T02440171  RH  064%=      5-min Rain = 0
KMC4 110945Z 11006KT 24/17 A3009 RMK A01 T02430171  RH  064%=      5-min Rain = 0
KMC4 110946Z 11006KT 24/17 A3009 RMK A01 T02430171  RH  064%=      5-min Rain = 0
KMC4 110947Z 11005KT 24/17 A3009 RMK A01 T02430171  RH  064%=      5-min Rain = 0
KMC4 110948Z 11005KT 24/17 A3009 RMK A01 T02430171  RH  064%=      5-min Rain = 0
KMC4 110949Z 10005KT 24/17 A3009 RMK A01 T02430171  RH  064%=      5-min Rain = 0
KMC4 110950Z 11007KT 24/17 A3009 RMK A01 T02430171  RH  064%=      5-min Rain = 0
KMC4 110951Z 11005KT 24/17 A3009 RMK A01 T02430172  RH  064%=      5-min Rain = 0
KMC4 110952Z 11006KT 24/17 A3009 RMK A01 T02440172  RH  064%=      5-min Rain = 0
KMC4 110953Z 10004KT 24/17 A3009 RMK A01 T02440172  RH  064%=      5-min Rain = 0
KMC4 110954Z 10004KT 24/17 A3009 RMK A01 T02440172  RH  064%=      5-min Rain = 0
KMC4 110955Z 11005KT 24/17 A3009 RMK A01 T02430172  RH  065%=      5-min Rain = 0
KMC4 110956Z 11005KT 24/17 A3009 RMK A01 T02420172  RH  065%=      5-min Rain = 0
KMC4 110957Z 10005KT 24/17 A3009 RMK A01 T02420172  RH  065%=      5-min Rain = 0
KMC4 110958Z 11006KT 24/17 A3009 RMK A01 T02420173  RH  065%=      5-min Rain = 0
KMC4 110959Z 11005KT 24/17 A3009 RMK A01 T02420173  RH  065%=      5-min Rain = 0
KMC4 111000Z 12006KT 24/17 A3009 RMK A01 T02420173  RH  065%=      5-min Rain = 0
KMC4 111001Z 11005KT 24/17 A3009 RMK A01 T02420173  RH  066%=      5-min Rain = 0
KMC4 111002Z 12005KT 24/17 A3009 RMK A01 T02410174  RH  066%=      5-min Rain = 0
KMC4 111003Z 12007KT 24/17 A3009 RMK A01 T02410174  RH  066%=      5-min Rain = 0
KMC4 111004Z 12006KT 24/17 A3009 RMK A01 T02410174  RH  066%=      5-min Rain = 0
KMC4 111005Z 12007KT 24/17 A3009 RMK A01 T02410174  RH  066%=      5-min Rain = 0
KMC4 111006Z 11006KT 24/17 A3009 RMK A01 T02410174  RH  066%=      5-min Rain = 0
KMC4 111007Z 11007KT 24/17 A3009 RMK A01 T02410174  RH  066%=      5-min Rain = 0
KMC4 111008Z 12008KT 24/17 A3009 RMK A01 T02410174  RH  066%=      5-min Rain = 0
KMC4 111009Z 12008KT 24/17 A3009 RMK A01 T02420174  RH  066%=      5-min Rain = 0
KMC4 111010Z 12007KT 24/17 A3009 RMK A01 T02420174  RH  066%=      5-min Rain = 0
KMC4 111011Z 12007KT 24/18 A3008 RMK A01 T02410175  RH  066%=      5-min Rain = 0
KMC4 111012Z 12008KT 24/18 A3008 RMK A01 T02410175  RH  066%=      5-min Rain = 0
KMC4 111013Z 13008KT 24/18 A3008 RMK A01 T02410175  RH  066%=      5-min Rain = 0
KMC4 111014Z 12007KT 24/18 A3008 RMK A01 T02410175  RH  067%=      5-min Rain = 0
KMC4 111015Z 13007KT 24/18 A3008 RMK A01 T02400175  RH  067%=      5-min Rain = 0
KMC4 111016Z 12007KT 24/18 A3008 RMK A01 T02400175  RH  067%=      5-min Rain = 0
KMC4 111017Z 12007KT 24/18 A3008 RMK A01 T02400175  RH  067%=      5-min Rain = 0
KMC4 111018Z 12006KT 24/18 A3008 RMK A01 T02390176  RH  068%=      5-min Rain = 0
KMC4 111019Z 13008KT 24/18 A3008 RMK A01 T02380176  RH  068%=      5-min Rain = 0
KMC4 111020Z 12008KT 24/18 A3008 RMK A01 T02390176  RH  068%=      5-min Rain = 0
KMC4 111021Z 13007KT 24/18 A3008 RMK A01 T02380176  RH  068%=      5-min Rain = 0
KMC4 111022Z 13008KT 24/18 A3008 RMK A01 T02380176  RH  068%=      5-min Rain = 0
KMC4 111023Z 13007KT 24/18 A3008 RMK A01 T02380176  RH  068%=      5-min Rain = 0
KMC4 111024Z 13007KT 24/18 A3008 RMK A01 T02380176  RH  069%=      5-min Rain = 0
KMC4 111025Z 13007KT 24/18 A3008 RMK A01 T02370177  RH  069%=      5-min Rain = 0
KMC4 111026Z 13007KT 24/18 A3008 RMK A01 T02360177  RH  069%=      5-min Rain = 0
KMC4 111027Z 13006KT 24/18 A3008 RMK A01 T02360177  RH  069%=      5-min Rain = 0
KMC4 111028Z 12007KT 24/18 A3008 RMK A01 T02360177  RH  069%=      5-min Rain = 0
KMC4 111029Z 13008KT 24/18 A3008 RMK A01 T02360177  RH  069%=      5-min Rain = 0
KMC4 111030Z 13008KT 24/18 A3008 RMK A01 T02360177  RH  069%=      5-min Rain = 0
KMC4 111031Z 12007KT 24/18 A3008 RMK A01 T02370177  RH  069%=      5-min Rain = 0
KMC4 111032Z 13007KT 24/18 A3008 RMK A01 T02370178  RH  069%=      5-min Rain = 0
KMC4 111033Z 12008KT 24/18 A3008 RMK A01 T02360178  RH  070%=      5-min Rain = 0
KMC4 111034Z 13008KT 24/18 A3008 RMK A01 T02360178  RH  070%=      5-min Rain = 0
KMC4 111035Z 12008KT 24/18 A3009 RMK A01 T02360178  RH  070%=      5-min Rain = 0
KMC4 111036Z 12008KT 24/18 A3009 RMK A01 T02360178  RH  070%=      5-min Rain = 0
KMC4 111037Z 13007KT 24/18 A3009 RMK A01 T02360178  RH  070%=      5-min Rain = 0
KMC4 111038Z 13007KT 24/18 A3009 RMK A01 T02360178  RH  070%=      5-min Rain = 0
KMC4 111039Z 13007KT 24/18 A3009 RMK A01 T02360178  RH  070%=      5-min Rain = 0
KMC4 111040Z 13008KT 24/18 A3009 RMK A01 T02360178  RH  070%=      5-min Rain = 0
KMC4 111041Z 13009KT 24/18 A3009 RMK A01 T02360179  RH  070%=      5-min Rain = 0
KMC4 111042Z 13008KT 24/18 A3009 RMK A01 T02360179  RH  070%=      5-min Rain = 0
KMC4 111043Z 13008KT 24/18 A3008 RMK A01 T02350179  RH  071%=      5-min Rain = 0
KMC4 111044Z 13009KT 24/18 A3008 RMK A01 T02350179  RH  071%=      5-min Rain = 0
KMC4 111045Z 12008KT 24/18 A3008 RMK A01 T02350179  RH  071%=      5-min Rain = 0
KMC4 111046Z 12009KT 24/18 A3008 RMK A01 T02360179  RH  071%=      5-min Rain = 0
KMC4 111047Z 12008KT 24/18 A3008 RMK A01 T02350179  RH  071%=      5-min Rain = 0
KMC4 111048Z 13009KT 24/18 A3009 RMK A01 T02360180  RH  071%=      5-min Rain = 0
KMC4 111049Z 13008KT 24/18 A3009 RMK A01 T02350180  RH  071%=      5-min Rain = 0
KMC4 111050Z 12007KT 24/18 A3009 RMK A01 T02350180  RH  071%=      5-min Rain = 0
KMC4 111051Z 12008KT 24/18 A3009 RMK A01 T02350180  RH  071%=      5-min Rain = 0
KMC4 111052Z 13008KT 24/18 A3009 RMK A01 T02350180  RH  071%=      5-min Rain = 0
KMC4 111053Z 13008KT 23/18 A3009 RMK A01 T02340180  RH  071%=      5-min Rain = 0
KMC4 111054Z 12008KT 23/18 A3009 RMK A01 T02340180  RH  072%=      5-min Rain = 0
KMC4 111055Z 12006KT 24/18 A3009 RMK A01 T02350180  RH  071%=      5-min Rain = 0
KMC4 111056Z 12007KT 24/18 A3009 RMK A01 T02350181  RH  072%=      5-min Rain = 0
KMC4 111057Z 12006KT 24/18 A3009 RMK A01 T02350181  RH  072%=      5-min Rain = 0
KMC4 111058Z 12007KT 23/18 A3009 RMK A01 T02340180  RH  072%=      5-min Rain = 0
KMC4 111059Z 13006KT 24/18 A3009 RMK A01 T02350181  RH  072%=      5-min Rain = 0
KMC4 111100Z 13007KT 23/18 A3009 RMK A01 T02340181  RH  072%=      5-min Rain = 0
KMC4 111101Z 12007KT 24/18 A3009 RMK A01 T02350181  RH  072%=      5-min Rain = 0
KMC4 111102Z 12006KT 23/18 A3009 RMK A01 T02340181  RH  072%=      5-min Rain = 0
KMC4 111103Z 12006KT 23/18 A301 RMK A01 T02340182  RH  072%=      5-min Rain = 0
KMC4 111104Z 11006KT 23/18 A301 RMK A01 T02340182  RH  072%=      5-min Rain = 0
KMC4 111105Z 11005KT 23/18 A301 RMK A01 T02340182  RH  072%=      5-min Rain = 0
KMC4 111106Z 11005KT 23/18 A301 RMK A01 T02340182  RH  072%=      5-min Rain = 0
KMC4 111107Z 11005KT 23/18 A301 RMK A01 T02340182  RH  072%=      5-min Rain = 0
KMC4 111108Z 11004KT 23/18 A301 RMK A01 T02340182  RH  072%=      5-min Rain = 0
KMC4 111109Z 11005KT 23/18 A301 RMK A01 T02340182  RH  072%=      5-min Rain = 0
KMC4 111110Z 12004KT 24/18 A301 RMK A01 T02350182  RH  072%=      5-min Rain = 0
KMC4 111111Z 11004KT 23/18 A301 RMK A01 T02340182  RH  072%=      5-min Rain = 0
KMC4 111112Z 11005KT 23/18 A301 RMK A01 T02340182  RH  073%=      5-min Rain = 0
KMC4 111113Z 11004KT 23/18 A301 RMK A01 T02340183  RH  073%=      5-min Rain = 0
KMC4 111114Z 10004KT 23/18 A301 RMK A01 T02340183  RH  073%=      5-min Rain = 0
KMC4 111115Z 10004KT 23/18 A301 RMK A01 T02330182  RH  073%=      5-min Rain = 0
KMC4 111116Z 10004KT 23/18 A301 RMK A01 T02340182  RH  073%=      5-min Rain = 0
KMC4 111117Z 10005KT 23/18 A301 RMK A01 T02340182  RH  073%=      5-min Rain = 0
KMC4 111118Z 10004KT 23/18 A301 RMK A01 T02340183  RH  073%=      5-min Rain = 0
KMC4 111119Z 08005KT 23/18 A301 RMK A01 T02340183  RH  073%=      5-min Rain = 0
KMC4 111120Z 08005KT 23/18 A301 RMK A01 T02340183  RH  073%=      5-min Rain = 0
KMC4 111121Z 09005KT 23/18 A301 RMK A01 T02340183  RH  073%=      5-min Rain = 0
KMC4 111122Z 10006KT 23/18 A301 RMK A01 T02340183  RH  073%=      5-min Rain = 0
KMC4 111123Z 10005KT 23/18 A301 RMK A01 T02340183  RH  073%=      5-min Rain = 0
KMC4 111124Z 10005KT 23/18 A301 RMK A01 T02330183  RH  073%=      5-min Rain = 0
KMC4 111125Z 10004KT 23/18 A301 RMK A01 T02330183  RH  073%=      5-min Rain = 0
KMC4 111126Z 11005KT 23/18 A301 RMK A01 T02330184  RH  074%=      5-min Rain = 0
KMC4 111127Z 10005KT 23/18 A301 RMK A01 T02330184  RH  074%=      5-min Rain = 0
KMC4 111128Z 11005KT 23/18 A301 RMK A01 T02320184  RH  074%=      5-min Rain = 0
KMC4 111129Z 10006KT 23/18 A301 RMK A01 T02320184  RH  074%=      5-min Rain = 0
KMC4 111130Z 11006KT 23/18 A301 RMK A01 T02320184  RH  074%=      5-min Rain = 0
KMC4 111131Z 11005KT 23/18 A301 RMK A01 T02320184  RH  074%=      5-min Rain = 0
KMC4 111132Z 11006KT 23/18 A301 RMK A01 T02320184  RH  075%=      5-min Rain = 0
KMC4 111133Z 11006KT 23/19 A301 RMK A01 T02320185  RH  075%=      5-min Rain = 0
KMC4 111134Z 12006KT 23/19 A301 RMK A01 T02320185  RH  075%=      5-min Rain = 0
KMC4 111135Z 11005KT 23/19 A301 RMK A01 T02320185  RH  075%=      5-min Rain = 0
KMC4 111136Z 11006KT 23/19 A301 RMK A01 T02320185  RH  075%=      5-min Rain = 0
KMC4 111137Z 12006KT 23/19 A301 RMK A01 T02320185  RH  075%=      5-min Rain = 0
KMC4 111138Z 11005KT 23/19 A301 RMK A01 T02320185  RH  075%=      5-min Rain = 0
KMC4 111139Z 11005KT 23/19 A301 RMK A01 T02320185  RH  075%=      5-min Rain = 0
KMC4 111140Z 12007KT 23/19 A301 RMK A01 T02310185  RH  075%=      5-min Rain = 0
KMC4 111141Z 12005KT 23/19 A301 RMK A01 T02310185  RH  075%=      5-min Rain = 0
KMC4 111142Z 11005KT 23/19 A301 RMK A01 T02310185  RH  075%=      5-min Rain = 0
KMC4 111143Z 11007KT 23/19 A301 RMK A01 T02310186  RH  075%=      5-min Rain = 0
KMC4 111144Z 12006KT 23/19 A301 RMK A01 T02310186  RH  076%=      5-min Rain = 0
KMC4 111145Z 12006KT 23/19 A301 RMK A01 T02310186  RH  076%=      5-min Rain = 0
KMC4 111146Z 11007KT 23/19 A301 RMK A01 T02310186  RH  076%=      5-min Rain = 0
KMC4 111147Z 12007KT 23/19 A301 RMK A01 T02310186  RH  076%=      5-min Rain = 0
KMC4 111148Z 12007KT 23/19 A301 RMK A01 T02310186  RH  076%=      5-min Rain = 0
KMC4 111149Z 12007KT 23/19 A301 RMK A01 T02320186  RH  076%=      5-min Rain = 0
KMC4 111150Z 12007KT 23/19 A301 RMK A01 T02320187  RH  076%=      5-min Rain = 0
KMC4 111151Z 12008KT 23/19 A301 RMK A01 T02310187  RH  076%=      5-min Rain = 0
KMC4 111152Z 12007KT 23/19 A301 RMK A01 T02310187  RH  076%=      5-min Rain = 0
KMC4 111153Z 12008KT 23/19 A301 RMK A01 T02310187  RH  076%=      5-min Rain = 0
KMC4 111154Z 13006KT 23/19 A301 RMK A01 T02310187  RH  076%=      5-min Rain = 0
KMC4 111155Z 12005KT 23/19 A301 RMK A01 T02320188  RH  076%=      5-min Rain = 0
KMC4 111156Z 12006KT 23/19 A301 RMK A01 T02310187  RH  077%=      5-min Rain = 0
KMC4 111157Z 12007KT 23/19 A301 RMK A01 T02300187  RH  077%=      5-min Rain = 0
KMC4 111158Z 12006KT 23/19 A3011 RMK A01 T02300187  RH  077%=      5-min Rain = 0
KMC4 111159Z 12008KT 23/19 A3011 RMK A01 T02300187  RH  077%=      5-min Rain = 0
KMC4 111200Z 12006KT 23/19 A3011 RMK A01 T02300187  RH  077%=      5-min Rain = 0
KMC4 111201Z 12006KT 23/19 A3011 RMK A01 T02300188  RH  077%=      5-min Rain = 0
KMC4 111202Z 12006KT 23/19 A3011 RMK A01 T02300188  RH  077%=      5-min Rain = 0
KMC4 111203Z 12007KT 23/19 A3011 RMK A01 T02300188  RH  077%=      5-min Rain = 0
KMC4 111204Z 12007KT 23/19 A3011 RMK A01 T02300188  RH  077%=      5-min Rain = 0
KMC4 111205Z 11007KT 23/19 A3011 RMK A01 T02300188  RH  077%=      5-min Rain = 0
KMC4 111206Z 12008KT 23/19 A3011 RMK A01 T02300188  RH  077%=      5-min Rain = 0
KMC4 111207Z 12006KT 23/19 A3011 RMK A01 T02300188  RH  077%=      5-min Rain = 0
KMC4 111208Z 13006KT 23/19 A3011 RMK A01 T02300188  RH  077%=      5-min Rain = 0
KMC4 111209Z 12007KT 23/19 A3011 RMK A01 T02310188  RH  077%=      5-min Rain = 0
KMC4 111210Z 12007KT 23/19 A3011 RMK A01 T02310188  RH  077%=      5-min Rain = 0
KMC4 111211Z 11005KT 23/19 A3011 RMK A01 T02310189  RH  077%=      5-min Rain = 0
KMC4 111212Z 12006KT 23/19 A3011 RMK A01 T02310189  RH  077%=      5-min Rain = 0
KMC4 111213Z 11006KT 23/19 A3011 RMK A01 T02310189  RH  077%=      5-min Rain = 0
KMC4 111214Z 12006KT 23/19 A3011 RMK A01 T02310189  RH  077%=      5-min Rain = 0
KMC4 111215Z 12006KT 23/19 A3011 RMK A01 T02310189  RH  077%=      5-min Rain = 0
KMC4 111216Z 11006KT 23/19 A3011 RMK A01 T02310189  RH  077%=      5-min Rain = 0
KMC4 111217Z 11006KT 23/19 A3011 RMK A01 T02310189  RH  077%=      5-min Rain = 0
KMC4 111218Z 12006KT 23/19 A3011 RMK A01 T02320189  RH  077%=      5-min Rain = 0
KMC4 111219Z 11004KT 23/19 A3011 RMK A01 T02320189  RH  077%=      5-min Rain = 0
KMC4 111220Z 11005KT 23/19 A3011 RMK A01 T02320189  RH  077%=      5-min Rain = 0
KMC4 111221Z 10005KT 23/19 A3011 RMK A01 T02320189  RH  077%=      5-min Rain = 0
KMC4 111222Z 11006KT 23/19 A3011 RMK A01 T02330189  RH  076%=      5-min Rain = 0
KMC4 111223Z 10004KT 23/19 A3011 RMK A01 T02330189  RH  076%=      5-min Rain = 0
KMC4 111224Z 11005KT 23/19 A3012 RMK A01 T02330189  RH  076%=      5-min Rain = 0
KMC4 111225Z 12004KT 23/19 A3012 RMK A01 T02330189  RH  076%=      5-min Rain = 0
KMC4 111226Z 12004KT 23/19 A3012 RMK A01 T02330189  RH  076%=      5-min Rain = 0
KMC4 111227Z 12004KT 23/19 A3012 RMK A01 T02340190  RH  077%=      5-min Rain = 0
KMC4 111228Z 12005KT 23/19 A3012 RMK A01 T02340190  RH  076%=      5-min Rain = 0
KMC4 111229Z 12004KT 23/19 A3012 RMK A01 T02340190  RH  076%=      5-min Rain = 0
KMC4 111230Z 12005KT 23/19 A3012 RMK A01 T02340190  RH  076%=      5-min Rain = 0
KMC4 111231Z 12006KT 23/19 A3012 RMK A01 T02340190  RH  076%=      5-min Rain = 0
KMC4 111232Z 12006KT 23/19 A3012 RMK A01 T02340190  RH  076%=      5-min Rain = 0
KMC4 111233Z 12006KT 24/19 A3012 RMK A01 T02350190  RH  076%=      5-min Rain = 0
KMC4 111234Z 12006KT 23/19 A3012 RMK A01 T02340190  RH  076%=      5-min Rain = 0
KMC4 111235Z 13005KT 24/19 A3012 RMK A01 T02350190  RH  076%=      5-min Rain = 0
KMC4 111236Z 12007KT 24/19 A3012 RMK A01 T02350191  RH  076%=      5-min Rain = 0
KMC4 111237Z 12006KT 24/19 A3012 RMK A01 T02350190  RH  076%=      5-min Rain = 0
KMC4 111238Z 12005KT 24/19 A3012 RMK A01 T02350191  RH  076%=      5-min Rain = 0
KMC4 111239Z 12007KT 24/19 A3012 RMK A01 T02350191  RH  076%=      5-min Rain = 0
KMC4 111240Z 13008KT 24/19 A3012 RMK A01 T02350190  RH  076%=      5-min Rain = 0
KMC4 111241Z 12008KT 24/19 A3012 RMK A01 T02350191  RH  076%=      5-min Rain = 0
KMC4 111242Z 13007KT 24/19 A3012 RMK A01 T02360191  RH  076%=      5-min Rain = 0
KMC4 111243Z 12006KT 24/19 A3012 RMK A01 T02360191  RH  076%=      5-min Rain = 0
KMC4 111244Z 12006KT 24/19 A3012 RMK A01 T02360191  RH  076%=      5-min Rain = 0
KMC4 111245Z 12006KT 24/19 A3012 RMK A01 T02360192  RH  076%=      5-min Rain = 0
KMC4 111246Z 12008KT 24/19 A3012 RMK A01 T02370192  RH  076%=      5-min Rain = 0
KMC4 111247Z 12008KT 24/19 A3012 RMK A01 T02370191  RH  075%=      5-min Rain = 0
KMC4 111248Z 12007KT 24/19 A3012 RMK A01 T02370191  RH  075%=      5-min Rain = 0
KMC4 111249Z 12007KT 24/19 A3012 RMK A01 T02380192  RH  075%=      5-min Rain = 0
KMC4 111250Z 12009KT 24/19 A3012 RMK A01 T02370191  RH  075%=      5-min Rain = 0
KMC4 111251Z 12009KT 24/19 A3012 RMK A01 T02370191  RH  075%=      5-min Rain = 0
KMC4 111252Z 13007KT 24/19 A3012 RMK A01 T02370192  RH  075%=      5-min Rain = 0
KMC4 111253Z 12007KT 24/19 A3012 RMK A01 T02370192  RH  076%=      5-min Rain = 0
KMC4 111254Z 13009KT 24/19 A3012 RMK A01 T02370192  RH  076%=      5-min Rain = 0
KMC4 111255Z 12007KT 24/19 A3012 RMK A01 T02380192  RH  075%=      5-min Rain = 0
KMC4 111256Z 13007KT 24/19 A3012 RMK A01 T02380192  RH  075%=      5-min Rain = 0
KMC4 111257Z 12009KT 24/19 A3012 RMK A01 T02380192  RH  075%=      5-min Rain = 0
KMC4 111258Z 12008KT 24/19 A3012 RMK A01 T02380191  RH  075%=      5-min Rain = 0
KMC4 111259Z 13009KT 24/19 A3012 RMK A01 T02390192  RH  075%=      5-min Rain = 0
KMC4 111300Z 12007KT 24/19 A3012 RMK A01 T02390192  RH  075%=      5-min Rain = 0
KMC4 111301Z 12009KT 24/19 A3012 RMK A01 T02390192  RH  075%=      5-min Rain = 0
KMC4 111302Z 13010KT 24/19 A3012 RMK A01 T02400192  RH  075%=      5-min Rain = 0
KMC4 111303Z 14011KT 24/19 A3012 RMK A01 T02400192  RH  074%=      5-min Rain = 0
KMC4 111304Z 13009KT 24/19 A3012 RMK A01 T02400192  RH  074%=      5-min Rain = 0
KMC4 111305Z 13006KT 24/19 A3012 RMK A01 T02410192  RH  074%=      5-min Rain = 0
KMC4 111306Z 13007KT 24/19 A3012 RMK A01 T02420193  RH  074%=      5-min Rain = 0
KMC4 111307Z 13008G13KT 24/19 A3012 RMK A01 T02420192  RH  074%=      5-min Rain = 0
KMC4 111308Z 14009KT 24/19 A3012 RMK A01 T02420192  RH  073%=      5-min Rain = 0
KMC4 111309Z 13008KT 24/19 A3013 RMK A01 T02420192  RH  073%=      5-min Rain = 0
KMC4 111310Z 13007KT 24/19 A3013 RMK A01 T02430192  RH  073%=      5-min Rain = 0
KMC4 111311Z 12008KT 24/19 A3013 RMK A01 T02430192  RH  073%=      5-min Rain = 0
KMC4 111312Z 12009KT 24/19 A3013 RMK A01 T02440192  RH  073%=      5-min Rain = 0
KMC4 111313Z 13008KT 24/19 A3013 RMK A01 T02440192  RH  073%=      5-min Rain = 0
KMC4 111314Z 13008KT 24/19 A3013 RMK A01 T02440192  RH  073%=      5-min Rain = 0
KMC4 111315Z 14008KT 24/19 A3013 RMK A01 T02440193  RH  073%=      5-min Rain = 0
KMC4 111316Z 13008KT 25/19 A3013 RMK A01 T02450193  RH  073%=      5-min Rain = 0
KMC4 111317Z 13008KT 25/19 A3013 RMK A01 T02450193  RH  073%=      5-min Rain = 0
KMC4 111318Z 14008KT 25/19 A3013 RMK A01 T02460193  RH  072%=      5-min Rain = 0
KMC4 111319Z 14009KT 25/19 A3013 RMK A01 T02460192  RH  072%=      5-min Rain = 0
KMC4 111320Z 14006KT 25/19 A3013 RMK A01 T02460193  RH  072%=      5-min Rain = 0
KMC4 111321Z 13006KT 25/19 A3013 RMK A01 T02460194  RH  073%=      5-min Rain = 0
KMC4 111322Z 14010KT 25/19 A3013 RMK A01 T02470193  RH  072%=      5-min Rain = 0
KMC4 111323Z 13010KT 25/19 A3013 RMK A01 T02480192  RH  071%=      5-min Rain = 0
KMC4 111324Z 14010KT 25/19 A3013 RMK A01 T02480192  RH  071%=      5-min Rain = 0
KMC4 111325Z 13009KT 25/19 A3013 RMK A01 T02480192  RH  071%=      5-min Rain = 0
KMC4 111326Z 14010KT 25/19 A3013 RMK A01 T02480192  RH  071%=      5-min Rain = 0
KMC4 111327Z 13009KT 25/19 A3013 RMK A01 T02480192  RH  071%=      5-min Rain = 0
KMC4 111328Z 13008KT 25/19 A3013 RMK A01 T02480193  RH  071%=      5-min Rain = 0
KMC4 111329Z 14010KT 25/19 A3013 RMK A01 T02490193  RH  071%=      5-min Rain = 0
KMC4 111330Z 14009KT 25/19 A3013 RMK A01 T02500192  RH  070%=      5-min Rain = 0
KMC4 111331Z 14009KT 25/19 A3013 RMK A01 T02500193  RH  070%=      5-min Rain = 0
KMC4 111332Z 14010KT 25/19 A3013 RMK A01 T02500193  RH  070%=      5-min Rain = 0
KMC4 111333Z 15012KT 25/19 A3013 RMK A01 T02500192  RH  070%=      5-min Rain = 0
KMC4 111334Z 15011KT 25/19 A3013 RMK A01 T02500191  RH  070%=      5-min Rain = 0
KMC4 111335Z 15009KT 25/19 A3013 RMK A01 T02490191  RH  070%=      5-min Rain = 0
KMC4 111336Z 15009KT 25/19 A3013 RMK A01 T02490192  RH  070%=      5-min Rain = 0
KMC4 111337Z 14008KT 25/19 A3013 RMK A01 T02500193  RH  071%=      5-min Rain = 0
KMC4 111338Z 14010KT 25/19 A3013 RMK A01 T02510194  RH  070%=      5-min Rain = 0
KMC4 111339Z 14011KT 25/19 A3013 RMK A01 T02520192  RH  069%=      5-min Rain = 0
KMC4 111340Z 14010KT 25/19 A3013 RMK A01 T02530192  RH  069%=      5-min Rain = 0
KMC4 111341Z 14011KT 25/19 A3013 RMK A01 T02520193  RH  069%=      5-min Rain = 0
KMC4 111342Z 15010KT 25/19 A3013 RMK A01 T02530192  RH  069%=      5-min Rain = 0
KMC4 111343Z 15011KT 25/19 A3013 RMK A01 T02520192  RH  069%=      5-min Rain = 0
KMC4 111344Z 14010KT 25/19 A3013 RMK A01 T02520192  RH  069%=      5-min Rain = 0
KMC4 111345Z 14009KT 25/19 A3013 RMK A01 T02520193  RH  070%=      5-min Rain = 0
KMC4 111346Z 13010KT 25/19 A3013 RMK A01 T02540193  RH  069%=      5-min Rain = 0
KMC4 111347Z 13011KT 26/19 A3013 RMK A01 T02550193  RH  068%=      5-min Rain = 0
KMC4 111348Z 14010KT 26/19 A3013 RMK A01 T02550192  RH  068%=      5-min Rain = 0
KMC4 111349Z 15011KT 26/19 A3013 RMK A01 T02550191  RH  068%=      5-min Rain = 0
KMC4 111350Z 14009KT 25/19 A3013 RMK A01 T02540191  RH  068%=      5-min Rain = 0
KMC4 111351Z 13013KT 25/19 A3014 RMK A01 T02540191  RH  068%=      5-min Rain = 0
KMC4 111352Z 14012KT 25/19 A3014 RMK A01 T02540191  RH  068%=      5-min Rain = 0
KMC4 111353Z 13010KT 25/19 A3014 RMK A01 T02540191  RH  068%=      5-min Rain = 0
KMC4 111354Z 14010KT 26/19 A3014 RMK A01 T02550192  RH  068%=      5-min Rain = 0
KMC4 111355Z 14011KT 26/19 A3014 RMK A01 T02550191  RH  068%=      5-min Rain = 0
KMC4 111356Z 13010KT 26/19 A3014 RMK A01 T02550192  RH  068%=      5-min Rain = 0
KMC4 111357Z 14011KT 26/19 A3014 RMK A01 T02560192  RH  068%=      5-min Rain = 0
KMC4 111358Z 14011KT 26/19 A3014 RMK A01 T02570191  RH  067%=      5-min Rain = 0
KMC4 111359Z 13010KT 26/19 A3014 RMK A01 T02570192  RH  067%=      5-min Rain = 0
KMC4 111400Z 13011KT 26/19 A3014 RMK A01 T02570191  RH  067%=      5-min Rain = 0
KMC4 111401Z 14010KT 26/19 A3014 RMK A01 T02570192  RH  067%=      5-min Rain = 0
KMC4 111402Z 14013KT 26/19 A3014 RMK A01 T02580192  RH  067%=      5-min Rain = 0
KMC4 111403Z 14011KT 26/19 A3014 RMK A01 T02590192  RH  067%=      5-min Rain = 0
KMC4 111404Z 13010KT 26/19 A3014 RMK A01 T02580191  RH  066%=      5-min Rain = 0
KMC4 111405Z 14009KT 26/19 A3014 RMK A01 T02580192  RH  067%=      5-min Rain = 0
KMC4 111406Z 13009KT 26/19 A3014 RMK A01 T02590191  RH  066%=      5-min Rain = 0
KMC4 111407Z 14010KT 26/19 A3014 RMK A01 T02590192  RH  066%=      5-min Rain = 0
KMC4 111408Z 14011KT 26/19 A3014 RMK A01 T02600193  RH  066%=      5-min Rain = 0
KMC4 111409Z 15011KT 26/19 A3014 RMK A01 T02600191  RH  066%=      5-min Rain = 0
KMC4 111410Z 14010KT 26/19 A3014 RMK A01 T02590192  RH  066%=      5-min Rain = 0
KMC4 111411Z 15009KT 26/19 A3014 RMK A01 T02590193  RH  067%=      5-min Rain = 0
KMC4 111412Z 15009KT 26/19 A3014 RMK A01 T02590191  RH  066%=      5-min Rain = 0
KMC4 111413Z 16010KT 26/19 A3014 RMK A01 T02600189  RH  065%=      5-min Rain = 0
KMC4 111414Z 15007KT 26/19 A3014 RMK A01 T02600189  RH  065%=      5-min Rain = 0
KMC4 111415Z 14011KT 26/19 A3014 RMK A01 T02610191  RH  065%=      5-min Rain = 0
KMC4 111416Z 15009KT 26/19 A3014 RMK A01 T02620190  RH  065%=      5-min Rain = 0
KMC4 111417Z 13010KT 26/19 A3014 RMK A01 T02620192  RH  065%=      5-min Rain = 0
KMC4 111418Z 12010KT 26/19 A3014 RMK A01 T02620192  RH  065%=      5-min Rain = 0
KMC4 111419Z 13010KT 26/19 A3014 RMK A01 T02620192  RH  066%=      5-min Rain = 0
KMC4 111420Z 14008KT 26/19 A3014 RMK A01 T02620193  RH  066%=      5-min Rain = 0
KMC4 111421Z 14012KT 26/19 A3014 RMK A01 T02620191  RH  065%=      5-min Rain = 0
KMC4 111422Z 14011KT 26/19 A3014 RMK A01 T02630191  RH  065%=      5-min Rain = 0
KMC4 111423Z 14011KT 26/19 A3014 RMK A01 T02640191  RH  064%=      5-min Rain = 0
KMC4 111424Z 14008KT 26/19 A3014 RMK A01 T02640190  RH  064%=      5-min Rain = 0
KMC4 111425Z 15009KT 26/19 A3014 RMK A01 T02640190  RH  064%=      5-min Rain = 0
KMC4 111426Z 15009KT 26/19 A3014 RMK A01 T02640191  RH  064%=      5-min Rain = 0
KMC4 111427Z 15008KT 27/19 A3014 RMK A01 T02650191  RH  064%=      5-min Rain = 0
KMC4 111428Z 16010KT 27/19 A3014 RMK A01 T02660190  RH  063%=      5-min Rain = 0
KMC4 111429Z 16009KT 27/19 A3014 RMK A01 T02650190  RH  063%=      5-min Rain = 0
KMC4 111430Z 13009KT 27/19 A3014 RMK A01 T02650190  RH  063%=      5-min Rain = 0
KMC4 111431Z 14011KT 27/19 A3014 RMK A01 T02660190  RH  063%=      5-min Rain = 0
KMC4 111432Z 15010KT 27/19 A3014 RMK A01 T02660190  RH  063%=      5-min Rain = 0
KMC4 111433Z 15009KT 27/19 A3014 RMK A01 T02660191  RH  064%=      5-min Rain = 0
KMC4 111434Z 15009KT 27/19 A3014 RMK A01 T02650191  RH  064%=      5-min Rain = 0
KMC4 111435Z 13010KT 27/19 A3014 RMK A01 T02660191  RH  063%=      5-min Rain = 0
KMC4 111436Z 13010KT 27/19 A3014 RMK A01 T02670192  RH  063%=      5-min Rain = 0
KMC4 111437Z 13010KT 27/19 A3014 RMK A01 T02680191  RH  063%=      5-min Rain = 0
KMC4 111438Z 13010KT 27/19 A3014 RMK A01 T02680191  RH  062%=      5-min Rain = 0
KMC4 111439Z 13008KT 27/19 A3014 RMK A01 T02680191  RH  063%=      5-min Rain = 0
KMC4 111440Z 13009KT 27/19 A3014 RMK A01 T02680192  RH  063%=      5-min Rain = 0
KMC4 111441Z 13009KT 27/19 A3014 RMK A01 T02690193  RH  063%=      5-min Rain = 0
KMC4 111442Z 13008KT 27/19 A3014 RMK A01 T02710191  RH  062%=      5-min Rain = 0
KMC4 111443Z 15009KT 27/19 A3014 RMK A01 T02720192  RH  061%=      5-min Rain = 0
KMC4 111444Z 15009KT 27/19 A3014 RMK A01 T02730191  RH  061%=      5-min Rain = 0
KMC4 111445Z 14009KT 27/19 A3014 RMK A01 T02730192  RH  061%=      5-min Rain = 0
KMC4 111446Z 14009KT 27/19 A3014 RMK A01 T02720190  RH  061%=      5-min Rain = 0
KMC4 111447Z 13009KT 27/19 A3014 RMK A01 T02710191  RH  061%=      5-min Rain = 0
KMC4 111448Z 15009KT 27/19 A3014 RMK A01 T02720192  RH  062%=      5-min Rain = 0
KMC4 111449Z 16009KT 27/19 A3014 RMK A01 T02730190  RH  061%=      5-min Rain = 0
KMC4 111450Z 16010KT 27/19 A3014 RMK A01 T02730190  RH  060%=      5-min Rain = 0
KMC4 111451Z 17008KT 27/19 A3014 RMK A01 T02720190  RH  061%=      5-min Rain = 0
KMC4 111452Z 15008KT 27/19 A3014 RMK A01 T02720191  RH  061%=      5-min Rain = 0
KMC4 111453Z 14008KT 27/19 A3014 RMK A01 T02730191  RH  061%=      5-min Rain = 0
KMC4 111454Z 15012KT 28/19 A3014 RMK A01 T02750191  RH  060%=      5-min Rain = 0
KMC4 111455Z 16011KT 28/19 A3014 RMK A01 T02760189  RH  059%=      5-min Rain = 0
KMC4 111456Z 17010KT 28/19 A3014 RMK A01 T02750191  RH  060%=      5-min Rain = 0
KMC4 111457Z 17008KT 28/19 A3014 RMK A01 T02750189  RH  060%=      5-min Rain = 0
KMC4 111458Z 15007KT 27/19 A3014 RMK A01 T02740190  RH  060%=      5-min Rain = 0
KMC4 111459Z 13011KT 27/19 A3014 RMK A01 T02740190  RH  060%=      5-min Rain = 0
KMC4 111500Z 15014KT 28/19 A3014 RMK A01 T02760188  RH  059%=      5-min Rain = 0
KMC4 111501Z 16011KT 28/19 A3014 RMK A01 T02770188  RH  058%=      5-min Rain = 0
KMC4 111502Z 17010KT 28/19 A3014 RMK A01 T02770189  RH  058%=      5-min Rain = 0
KMC4 111503Z 18009KT 28/19 A3014 RMK A01 T02770187  RH  058%=      5-min Rain = 0
KMC4 111504Z 19008KT 28/19 A3014 RMK A01 T02770189  RH  059%=      5-min Rain = 0
KMC4 111505Z 17012KT 28/19 A3014 RMK A01 T02770187  RH  058%=      5-min Rain = 0
KMC4 111506Z 16013KT 28/19 A3014 RMK A01 T02770185  RH  057%=      5-min Rain = 0
KMC4 111507Z 16012KT 28/19 A3014 RMK A01 T02770185  RH  057%=      5-min Rain = 0
KMC4 111508Z 16010KT 28/19 A3014 RMK A01 T02760185  RH  058%=      5-min Rain = 0
KMC4 111509Z 18009KT 28/19 A3014 RMK A01 T02750185  RH  058%=      5-min Rain = 0
KMC4 111510Z 17011KT 28/19 A3014 RMK A01 T02750185  RH  058%=      5-min Rain = 0
KMC4 111511Z 17009KT 28/18 A3014 RMK A01 T02750183  RH  057%=      5-min Rain = 0
KMC4 111512Z 17010KT 28/18 A3014 RMK A01 T02760184  RH  057%=      5-min Rain = 0
KMC4 111513Z 18011KT 28/18 A3014 RMK A01 T02760183  RH  057%=      5-min Rain = 0
KMC4 111514Z 17009KT 28/18 A3014 RMK A01 T02760184  RH  057%=      5-min Rain = 0
KMC4 111515Z 15012KT 28/19 A3014 RMK A01 T02770186  RH  057%=      5-min Rain = 0
KMC4 111516Z 16011KT 28/19 A3014 RMK A01 T02790185  RH  057%=      5-min Rain = 0
KMC4 111517Z 15009KT 28/19 A3014 RMK A01 T02780185  RH  057%=      5-min Rain = 0
KMC4 111518Z 16011KT 28/19 A3014 RMK A01 T02770185  RH  057%=      5-min Rain = 0
KMC4 111519Z 16009G16KT 28/19 A3014 RMK A01 T02770185  RH  057%=      5-min Rain = 0
KMC4 111520Z 15012KT 28/19 A3014 RMK A01 T02790187  RH  057%=      5-min Rain = 0
KMC4 111521Z 14012KT 28/19 A3014 RMK A01 T02800186  RH  057%=      5-min Rain = 0
KMC4 111522Z 15009KT 28/19 A3014 RMK A01 T02800186  RH  057%=      5-min Rain = 0
KMC4 111523Z 15010KT 28/19 A3014 RMK A01 T02800186  RH  057%=      5-min Rain = 0
KMC4 111524Z 15008KT 28/19 A3014 RMK A01 T02790186  RH  057%=      5-min Rain = 0
KMC4 111525Z 13009KT 28/19 A3014 RMK A01 T02800186  RH  057%=      5-min Rain = 0
KMC4 111526Z 13009KT 28/19 A3014 RMK A01 T02820185  RH  056%=      5-min Rain = 0
KMC4 111527Z 14012KT 28/19 A3014 RMK A01 T02840187  RH  056%=      5-min Rain = 0
KMC4 111528Z 18012KT 29/19 A3014 RMK A01 T02850185  RH  055%=      5-min Rain = 0
KMC4 111529Z 17010KT 28/18 A3014 RMK A01 T02840183  RH  054%=      5-min Rain = 0
KMC4 111530Z 17008KT 28/18 A3014 RMK A01 T02820184  RH  055%=      5-min Rain = 0
KMC4 111531Z 17008KT 28/19 A3014 RMK A01 T02830186  RH  056%=      5-min Rain = 0
KMC4 111532Z 17010KT 28/19 A3014 RMK A01 T02840186  RH  055%=      5-min Rain = 0
KMC4 111533Z 16012KT 29/19 A3014 RMK A01 T02850186  RH  055%=      5-min Rain = 0
KMC4 111534Z 17009KT 28/19 A3014 RMK A01 T02840185  RH  055%=      5-min Rain = 0
KMC4 111535Z 17009KT 28/19 A3014 RMK A01 T02830185  RH  055%=      5-min Rain = 0
KMC4 111536Z 14012KT 28/18 A3014 RMK A01 T02840184  RH  055%=      5-min Rain = 0
KMC4 111537Z 15010KT 29/18 A3014 RMK A01 T02850182  RH  054%=      5-min Rain = 0
KMC4 111538Z 15009KT 28/18 A3014 RMK A01 T02840183  RH  054%=      5-min Rain = 0
KMC4 111539Z 17008KT 28/18 A3014 RMK A01 T02840184  RH  055%=      5-min Rain = 0
KMC4 111540Z 15010KT 29/18 A3014 RMK A01 T02850183  RH  054%=      5-min Rain = 0
KMC4 111541Z 17011KT 29/18 A3014 RMK A01 T02860184  RH  054%=      5-min Rain = 0
KMC4 111542Z 16012KT 29/18 A3014 RMK A01 T02860183  RH  054%=      5-min Rain = 0
KMC4 111543Z 15011KT 29/18 A3014 RMK A01 T02860182  RH  053%=      5-min Rain = 0
KMC4 111544Z 15010KT 29/18 A3014 RMK A01 T02860183  RH  054%=      5-min Rain = 0
KMC4 111545Z 15010KT 29/18 A3014 RMK A01 T02860183  RH  053%=      5-min Rain = 0
KMC4 111546Z 15013KT 29/18 A3013 RMK A01 T02880182  RH  053%=      5-min Rain = 0
KMC4 111547Z 16010KT 29/18 A3014 RMK A01 T02880182  RH  053%=      5-min Rain = 0
KMC4 111548Z 15010KT 29/18 A3014 RMK A01 T02860183  RH  054%=      5-min Rain = 0
KMC4 111549Z 17009KT 29/18 A3014 RMK A01 T02870184  RH  054%=      5-min Rain = 0
KMC4 111550Z 18011KT 29/18 A3013 RMK A01 T02890184  RH  053%=      5-min Rain = 0
KMC4 111551Z 17013KT 29/18 A3013 RMK A01 T02890182  RH  053%=      5-min Rain = 0
KMC4 111552Z 16014KT 29/18 A3013 RMK A01 T02880182  RH  053%=      5-min Rain = 0
KMC4 111553Z 15012KT 29/18 A3013 RMK A01 T02880182  RH  053%=      5-min Rain = 0
KMC4 111554Z 18011KT 29/18 A3013 RMK A01 T02870182  RH  053%=      5-min Rain = 0
KMC4 111555Z 18011KT 29/18 A3013 RMK A01 T02860182  RH  053%=      5-min Rain = 0
KMC4 111556Z 17012KT 29/18 A3013 RMK A01 T02860182  RH  053%=      5-min Rain = 0
KMC4 111557Z 16012KT 29/18 A3013 RMK A01 T02860182  RH  053%=      5-min Rain = 0
KMC4 111558Z 16013KT 29/18 A3013 RMK A01 T02860182  RH  053%=      5-min Rain = 0
KMC4 111559Z 16011KT 29/18 A3013 RMK A01 T02860182  RH  053%=      5-min Rain = 0
KMC4 111600Z 16010KT 29/18 A3013 RMK A01 T02900184  RH  053%=      5-min Rain = 0
KMC4 111601Z 16010KT 29/18 A3013 RMK A01 T02920183  RH  052%=      5-min Rain = 0
KMC4 111602Z 15010KT 29/18 A3013 RMK A01 T02930182  RH  051%=      5-min Rain = 0
KMC4 111603Z 17010KT 29/18 A3013 RMK A01 T02930183  RH  052%=      5-min Rain = 0
KMC4 111604Z 17011G16KT 29/18 A3013 RMK A01 T02930181  RH  051%=      5-min Rain = 0
KMC4 111605Z 15011KT 29/18 A3013 RMK A01 T02930180  RH  051%=      5-min Rain = 0
KMC4 111606Z 16009KT 29/18 A3013 RMK A01 T02920181  RH  051%=      5-min Rain = 0
KMC4 111607Z 14008KT 29/18 A3013 RMK A01 T02920182  RH  052%=      5-min Rain = 0
KMC4 111608Z 15008KT 29/18 A3013 RMK A01 T02930182  RH  051%=      5-min Rain = 0
KMC4 111609Z 17009KT 29/18 A3013 RMK A01 T02930181  RH  051%=      5-min Rain = 0
KMC4 111610Z 19008KT 29/18 A3013 RMK A01 T02920182  RH  051%=      5-min Rain = 0
KMC4 111611Z 19009KT 29/18 A3013 RMK A01 T02910182  RH  052%=      5-min Rain = 0
KMC4 111612Z 19008KT 29/18 A3013 RMK A01 T02910182  RH  052%=      5-min Rain = 0
KMC4 111613Z 16012KT 29/18 A3013 RMK A01 T02910181  RH  052%=      5-min Rain = 0
KMC4 111614Z 16012KT 29/18 A3013 RMK A01 T02930181  RH  051%=      5-min Rain = 0
KMC4 111615Z 15012KT 29/18 A3013 RMK A01 T02940180  RH  050%=      5-min Rain = 0
KMC4 111616Z 15010KT 29/18 A3013 RMK A01 T02940182  RH  051%=      5-min Rain = 0
KMC4 111617Z 17011KT 30/18 A3013 RMK A01 T02950180  RH  050%=      5-min Rain = 0
KMC4 111618Z 17012KT 30/18 A3013 RMK A01 T02950179  RH  050%=      5-min Rain = 0
KMC4 111619Z 16009KT 29/18 A3013 RMK A01 T02930180  RH  051%=      5-min Rain = 0
KMC4 111620Z 17010KT 29/18 A3013 RMK A01 T02930181  RH  051%=      5-min Rain = 0
KMC4 111621Z 17012KT 29/18 A3013 RMK A01 T02930180  RH  050%=      5-min Rain = 0
KMC4 111622Z 16012KT 29/18 A3013 RMK A01 T02940178  RH  050%=      5-min Rain = 0
KMC4 111623Z 16012KT 29/18 A3013 RMK A01 T02940179  RH  050%=      5-min Rain = 0
KMC4 111624Z 17008KT 29/18 A3013 RMK A01 T02940180  RH  050%=      5-min Rain = 0
KMC4 111625Z 16012KT 29/18 A3013 RMK A01 T02940180  RH  050%=      5-min Rain = 0
KMC4 111626Z 18010KT 29/18 A3013 RMK A01 T02940176  RH  049%=      5-min Rain = 0
KMC4 111627Z 17011KT 29/18 A3013 RMK A01 T02940177  RH  049%=      5-min Rain = 0
KMC4 111628Z 15012KT 29/18 A3013 RMK A01 T02940176  RH  049%=      5-min Rain = 0
KMC4 111629Z 14013KT 30/18 A3013 RMK A01 T02960176  RH  048%=      5-min Rain = 0
KMC4 111630Z 14010KT 30/18 A3013 RMK A01 T02970176  RH  048%=      5-min Rain = 0
KMC4 111631Z 15012KT 30/18 A3013 RMK A01 T02980178  RH  049%=      5-min Rain = 0
KMC4 111632Z 15012KT 30/18 A3013 RMK A01 T02980178  RH  049%=      5-min Rain = 0
KMC4 111633Z 18010KT 30/18 A3013 RMK A01 T03000178  RH  048%=      5-min Rain = 0
KMC4 111634Z 19011G16KT 30/18 A3013 RMK A01 T03010175  RH  047%=      5-min Rain = 0
KMC4 111635Z 18011G16KT 30/17 A3013 RMK A01 T03000174  RH  047%=      5-min Rain = 0
KMC4 111636Z 17010KT 30/18 A3013 RMK A01 T02990176  RH  048%=      5-min Rain = 0
KMC4 111637Z 19010KT 30/17 A3013 RMK A01 T02990174  RH  047%=      5-min Rain = 0
KMC4 111638Z 18012KT 30/17 A3013 RMK A01 T02990174  RH  047%=      5-min Rain = 0
KMC4 111639Z 16012KT 30/18 A3013 RMK A01 T02990175  RH  047%=      5-min Rain = 0
KMC4 111640Z 16010KT 30/18 A3013 RMK A01 T03000176  RH  047%=      5-min Rain = 0
KMC4 111641Z 17011KT 30/18 A3013 RMK A01 T03020178  RH  048%=      5-min Rain = 0
KMC4 111642Z 17012KT 31/18 A3013 RMK A01 T03050176  RH  046%=      5-min Rain = 0
KMC4 111643Z 18012KT 31/18 A3013 RMK A01 T03050175  RH  046%=      5-min Rain = 0
KMC4 111644Z 19009KT 30/17 A3013 RMK A01 T03030174  RH  046%=      5-min Rain = 0
KMC4 111645Z 16009KT 30/18 A3013 RMK A01 T03020176  RH  047%=      5-min Rain = 0
KMC4 111646Z 18010KT 30/18 A3013 RMK A01 T03020175  RH  047%=      5-min Rain = 0
KMC4 111647Z 18009KT 30/18 A3013 RMK A01 T03020177  RH  047%=      5-min Rain = 0
KMC4 111648Z 16011KT 31/18 A3012 RMK A01 T03050177  RH  046%=      5-min Rain = 0
KMC4 111649Z 18010KT 31/18 A3012 RMK A01 T03050177  RH  046%=      5-min Rain = 0
KMC4 111650Z 18010KT 31/18 A3013 RMK A01 T03070177  RH  046%=      5-min Rain = 0
KMC4 111651Z 17010KT 31/17 A3012 RMK A01 T03090174  RH  044%=      5-min Rain = 0
KMC4 111652Z 18008KT 31/18 A3013 RMK A01 T03100176  RH  045%=      5-min Rain = 0
KMC4 111653Z 17010KT 31/18 A3013 RMK A01 T03110177  RH  045%=      5-min Rain = 0
KMC4 111654Z 17008KT 31/18 A3013 RMK A01 T03120177  RH  044%=      5-min Rain = 0
KMC4 111655Z 19011KT 31/17 A3012 RMK A01 T03120174  RH  044%=      5-min Rain = 0
KMC4 111656Z 19009KT 31/17 A3012 RMK A01 T03090172  RH  044%=      5-min Rain = 0
KMC4 111657Z 18012KT 31/18 A3012 RMK A01 T03090175  RH  045%=      5-min Rain = 0
KMC4 111658Z 16015KT 31/17 A3012 RMK A01 T03110174  RH  044%=      5-min Rain = 0
KMC4 111659Z 17014KT 31/17 A3012 RMK A01 T03100172  RH  043%=      5-min Rain = 0
KMC4 111700Z 18012KT 31/17 A3012 RMK A01 T03100171  RH  043%=      5-min Rain = 0
KMC4 111701Z 18013KT 31/17 A3012 RMK A01 T03100172  RH  044%=      5-min Rain = 0
KMC4 111702Z 17012KT 31/17 A3012 RMK A01 T03080173  RH  044%=      5-min Rain = 0
KMC4 111703Z 17010KT 31/17 A3012 RMK A01 T03070174  RH  045%=      5-min Rain = 0
KMC4 111704Z 16009KT 31/18 A3012 RMK A01 T03070175  RH  045%=      5-min Rain = 0
KMC4 111705Z 16007KT 31/18 A3012 RMK A01 T03090175  RH  045%=      5-min Rain = 0
KMC4 111706Z 18008KT 31/18 A3012 RMK A01 T03090175  RH  045%=      5-min Rain = 0
KMC4 111707Z 19009KT 31/17 A3012 RMK A01 T03090174  RH  044%=      5-min Rain = 0
KMC4 111708Z 19011KT 31/17 A3012 RMK A01 T03090172  RH  044%=      5-min Rain = 0
KMC4 111709Z 19012KT 31/17 A3012 RMK A01 T03110172  RH  044%=      5-min Rain = 0
KMC4 111710Z 18011KT 31/17 A3012 RMK A01 T03130172  RH  043%=      5-min Rain = 0
KMC4 111711Z 16012KT 31/17 A3012 RMK A01 T03130174  RH  043%=      5-min Rain = 0
KMC4 111712Z 15014KT 31/17 A3012 RMK A01 T03120174  RH  043%=      5-min Rain = 0
KMC4 111713Z 14012KT 31/17 A3012 RMK A01 T03110174  RH  044%=      5-min Rain = 0
KMC4 111714Z 16011KT 31/18 A3012 RMK A01 T03110176  RH  045%=      5-min Rain = 0
KMC4 111715Z 16011KT 31/17 A3012 RMK A01 T03120171  RH  043%=      5-min Rain = 0
KMC4 111716Z 14013KT 31/17 A3012 RMK A01 T03120172  RH  043%=      5-min Rain = 0
KMC4 111717Z 15014KT 31/17 A3012 RMK A01 T03130173  RH  043%=      5-min Rain = 0
KMC4 111718Z 14016KT 31/17 A3012 RMK A01 T03140172  RH  043%=      5-min Rain = 0
KMC4 111719Z 14014KT 31/17 A3012 RMK A01 T03140172  RH  043%=      5-min Rain = 0
KMC4 111720Z 15012KT 32/17 A3012 RMK A01 T03150171  RH  042%=      5-min Rain = 0
KMC4 111721Z 16013KT 32/17 A3012 RMK A01 T03150171  RH  042%=      5-min Rain = 0
KMC4 111722Z 16014KT 31/17 A3012 RMK A01 T03130173  RH  043%=      5-min Rain = 0
KMC4 111723Z 16011KT 31/17 A3012 RMK A01 T03110172  RH  043%=      5-min Rain = 0
KMC4 111724Z 16011KT 31/17 A3012 RMK A01 T03100174  RH  044%=      5-min Rain = 0
KMC4 111725Z 16012KT 31/17 A3012 RMK A01 T03100170  RH  043%=      5-min Rain = 0
KMC4 111726Z 16010KT 31/17 A3012 RMK A01 T03100169  RH  043%=      5-min Rain = 0
KMC4 111727Z 16010KT 31/17 A3012 RMK A01 T03100171  RH  043%=      5-min Rain = 0
KMC4 111728Z 16014KT 31/17 A3012 RMK A01 T03130171  RH  043%=      5-min Rain = 0
KMC4 111729Z 17011KT 32/17 A3012 RMK A01 T03150168  RH  041%=      5-min Rain = 0
KMC4 111730Z 16010KT 32/17 A3012 RMK A01 T03150170  RH  042%=      5-min Rain = 0
KMC4 111731Z 19009KT 31/17 A3012 RMK A01 T03140172  RH  042%=      5-min Rain = 0
KMC4 111732Z 18008KT 32/17 A3012 RMK A01 T03160173  RH  042%=      5-min Rain = 0
KMC4 111733Z 18013KT 32/17 A3012 RMK A01 T03180173  RH  042%=      5-min Rain = 0
KMC4 111734Z 20011KT 32/17 A3012 RMK A01 T03170173  RH  042%=      5-min Rain = 0
KMC4 111735Z 19009KT 32/17 A3012 RMK A01 T03150171  RH  042%=      5-min Rain = 0
KMC4 111736Z 19008KT 31/17 A3012 RMK A01 T03140170  RH  042%=      5-min Rain = 0
KMC4 111737Z 19011KT 31/17 A3012 RMK A01 T03140168  RH  041%=      5-min Rain = 0
KMC4 111738Z 16012KT 32/17 A3012 RMK A01 T03150169  RH  041%=      5-min Rain = 0
KMC4 111739Z 18010KT 32/17 A3012 RMK A01 T03170170  RH  041%=      5-min Rain = 0
KMC4 111740Z 20009KT 32/17 A3012 RMK A01 T03200170  RH  041%=      5-min Rain = 0
KMC4 111741Z 18011G17KT 32/17 A3012 RMK A01 T03210173  RH  041%=      5-min Rain = 0
KMC4 111742Z 18014KT 32/17 A3011 RMK A01 T03220172  RH  041%=      5-min Rain = 0
KMC4 111743Z 18010KT 32/17 A3011 RMK A01 T03230168  RH  039%=      5-min Rain = 0
KMC4 111744Z 17012KT 32/17 A3011 RMK A01 T03230168  RH  039%=      5-min Rain = 0
KMC4 111745Z 19011KT 32/17 A3011 RMK A01 T03220167  RH  039%=      5-min Rain = 0
KMC4 111746Z 20011KT 32/17 A3011 RMK A01 T03220166  RH  039%=      5-min Rain = 0
KMC4 111747Z 19012KT 32/17 A3011 RMK A01 T03200166  RH  039%=      5-min Rain = 0
KMC4 111748Z 19009KT 32/17 A3011 RMK A01 T03190167  RH  040%=      5-min Rain = 0
KMC4 111749Z 20012KT 32/17 A3011 RMK A01 T03190165  RH  040%=      5-min Rain = 0
KMC4 111750Z 19011KT 32/16 A3011 RMK A01 T03190164  RH  039%=      5-min Rain = 0
KMC4 111751Z 19011KT 32/16 A3011 RMK A01 T03200164  RH  039%=      5-min Rain = 0
KMC4 111752Z 19010KT 32/17 A3011 RMK A01 T03210165  RH  039%=      5-min Rain = 0
KMC4 111753Z 17011KT 32/17 A3011 RMK A01 T03210167  RH  040%=      5-min Rain = 0
KMC4 111754Z 16010KT 32/17 A3011 RMK A01 T03220167  RH  040%=      5-min Rain = 0
KMC4 111755Z 19009KT 32/17 A3011 RMK A01 T03240169  RH  040%=      5-min Rain = 0
KMC4 111756Z 18011KT 33/17 A3011 RMK A01 T03270169  RH  039%=      5-min Rain = 0
KMC4 111757Z 16012KT 33/17 A3011 RMK A01 T03250171  RH  040%=      5-min Rain = 0
KMC4 111758Z 17011KT 32/17 A3011 RMK A01 T03240170  RH  040%=      5-min Rain = 0
KMC4 111759Z 18010KT 32/17 A3011 RMK A01 T03210167  RH  040%=      5-min Rain = 0
KMC4 111800Z 19013KT 32/17 A3011 RMK A01 T03200165  RH  040%=      5-min Rain = 0
KMC4 111801Z 19013KT 32/16 A3011 RMK A01 T03190163  RH  039%=      5-min Rain = 0
KMC4 111802Z 20014KT 32/16 A3011 RMK A01 T03190163  RH  039%=      5-min Rain = 0
KMC4 111803Z 20013KT 32/16 A3011 RMK A01 T03180164  RH  040%=      5-min Rain = 0
KMC4 111804Z 19013KT 32/16 A3011 RMK A01 T03180164  RH  040%=      5-min Rain = 0
KMC4 111805Z 21011KT 32/16 A3011 RMK A01 T03170164  RH  040%=      5-min Rain = 0
KMC4 111806Z 19012KT 32/16 A3011 RMK A01 T03180162  RH  039%=      5-min Rain = 0
KMC4 111807Z 18010KT 32/16 A3011 RMK A01 T03180162  RH  039%=      5-min Rain = 0
KMC4 111808Z 16013KT 32/16 A3011 RMK A01 T03210164  RH  039%=      5-min Rain = 0
KMC4 111809Z 18012KT 32/16 A3011 RMK A01 T03230162  RH  038%=      5-min Rain = 0
KMC4 111810Z 18009KT 32/16 A3011 RMK A01 T03240159  RH  037%=      5-min Rain = 0
KMC4 111811Z 18011KT 32/16 A3011 RMK A01 T03220161  RH  038%=      5-min Rain = 0
KMC4 111812Z 17010KT 32/16 A301 RMK A01 T03220164  RH  039%=      5-min Rain = 0
KMC4 111813Z 15009KT 32/16 A301 RMK A01 T03230164  RH  039%=      5-min Rain = 0
KMC4 111814Z 17013G18KT 32/17 A301 RMK A01 T03220165  RH  039%=      5-min Rain = 0
KMC4 111815Z 17016KT 33/17 A301 RMK A01 T03250165  RH  038%=      5-min Rain = 0
KMC4 111816Z 18015KT 33/16 A301 RMK A01 T03270162  RH  037%=      5-min Rain = 0
KMC4 111817Z 17013KT 32/16 A301 RMK A01 T03230159  RH  037%=      5-min Rain = 0
KMC4 111818Z 15010KT 32/16 A301 RMK A01 T03200160  RH  038%=      5-min Rain = 0
KMC4 111819Z 17009KT 32/16 A301 RMK A01 T03220162  RH  038%=      5-min Rain = 0
KMC4 111820Z 18009KT 32/16 A301 RMK A01 T03240161  RH  038%=      5-min Rain = 0
KMC4 111821Z 17007KT 32/16 A301 RMK A01 T03240163  RH  038%=      5-min Rain = 0
KMC4 111822Z 20008KT 33/16 A301 RMK A01 T03250162  RH  038%=      5-min Rain = 0
KMC4 111823Z 17008G13KT 33/16 A301 RMK A01 T03250162  RH  038%=      5-min Rain = 0
KMC4 111824Z 17010KT 33/16 A301 RMK A01 T03280164  RH  038%=      5-min Rain = 0
KMC4 111825Z 17013G18KT 33/16 A301 RMK A01 T03280162  RH  037%=      5-min Rain = 0
KMC4 111826Z 19014KT 33/16 A301 RMK A01 T03280164  RH  037%=      5-min Rain = 0
KMC4 111827Z 19012KT 33/16 A301 RMK A01 T03260162  RH  037%=      5-min Rain = 0
KMC4 111828Z 21010KT 33/16 A301 RMK A01 T03260161  RH  037%=      5-min Rain = 0
KMC4 111829Z 19011KT 33/16 A301 RMK A01 T03270160  RH  037%=      5-min Rain = 0
KMC4 111830Z 20012KT 33/16 A301 RMK A01 T03270158  RH  036%=      5-min Rain = 0
KMC4 111831Z 19009G14KT 33/16 A301 RMK A01 T03290158  RH  036%=      5-min Rain = 0
KMC4 111832Z 16010KT 33/16 A301 RMK A01 T03310160  RH  036%=      5-min Rain = 0
KMC4 111833Z 16006KT 33/16 A301 RMK A01 T03310158  RH  035%=      5-min Rain = 0
KMC4 111834Z 16011G17KT 33/16 A3009 RMK A01 T03300161  RH  036%=      5-min Rain = 0
KMC4 111835Z 16012KT 33/16 A3009 RMK A01 T03300163  RH  037%=      5-min Rain = 0
KMC4 111836Z 16011KT 33/16 A3009 RMK A01 T03310161  RH  036%=      5-min Rain = 0
KMC4 111837Z 17010G15KT 33/16 A3009 RMK A01 T03310161  RH  036%=      5-min Rain = 0
KMC4 111838Z 17014KT 33/16 A3009 RMK A01 T03290157  RH  036%=      5-min Rain = 0
KMC4 111839Z 18010G16KT 33/15 A3009 RMK A01 T03270154  RH  035%=      5-min Rain = 0
KMC4 111840Z 17009KT 32/16 A3009 RMK A01 T03240156  RH  036%=      5-min Rain = 0
KMC4 111841Z 17013KT 33/16 A3009 RMK A01 T03260156  RH  036%=      5-min Rain = 0
KMC4 111842Z 16011KT 33/16 A3009 RMK A01 T03300158  RH  036%=      5-min Rain = 0
KMC4 111843Z 18011KT 33/16 A3009 RMK A01 T03310155  RH  035%=      5-min Rain = 0
KMC4 111844Z 18010KT 33/15 A3009 RMK A01 T03310153  RH  034%=      5-min Rain = 0
KMC4 111845Z 19007KT 33/15 A3009 RMK A01 T03290153  RH  035%=      5-min Rain = 0
KMC4 111846Z 17010KT 33/15 A3009 RMK A01 T03260154  RH  035%=      5-min Rain = 0
KMC4 111847Z 19007KT 33/15 A3009 RMK A01 T03270151  RH  035%=      5-min Rain = 0
KMC4 111848Z 19008KT 33/16 A3009 RMK A01 T03280157  RH  036%=      5-min Rain = 0
KMC4 111849Z 17011KT 33/16 A3009 RMK A01 T03330163  RH  036%=      5-min Rain = 0
KMC4 111850Z 16013KT 33/17 A3009 RMK A01 T03330165  RH  037%=      5-min Rain = 0
KMC4 111851Z 12013KT 33/17 A3009 RMK A01 T03310166  RH  037%=      5-min Rain = 0
KMC4 111852Z 15012KT 33/16 A3009 RMK A01 T03300164  RH  037%=      5-min Rain = 0
KMC4 111853Z 14011G16KT 33/17 A3008 RMK A01 T03300165  RH  037%=      5-min Rain = 0
KMC4 111854Z 15011KT 33/17 A3008 RMK A01 T03300167  RH  038%=      5-min Rain = 0
KMC4 111855Z 16014G19KT 33/17 A3008 RMK A01 T03310165  RH  037%=      5-min Rain = 0
KMC4 111856Z 17016KT 33/16 A3008 RMK A01 T03320164  RH  037%=      5-min Rain = 0
KMC4 111857Z 16010KT 33/16 A3008 RMK A01 T03300164  RH  037%=      5-min Rain = 0
KMC4 111858Z 17013KT 33/16 A3008 RMK A01 T03300163  RH  037%=      5-min Rain = 0
KMC4 111859Z 17014G19KT 33/16 A3008 RMK A01 T03310162  RH  036%=      5-min Rain = 0
KMC4 111900Z 16015KT 33/16 A3008 RMK A01 T03310163  RH  036%=      5-min Rain = 0
KMC4 111901Z 13015KT 33/16 A3008 RMK A01 T03320163  RH  036%=      5-min Rain = 0
KMC4 111902Z 14013KT 33/16 A3008 RMK A01 T03320164  RH  036%=      5-min Rain = 0
KMC4 111903Z 13010KT 33/16 A3008 RMK A01 T03330163  RH  036%=      5-min Rain = 0
KMC4 111904Z 14009KT 34/17 A3008 RMK A01 T03350166  RH  036%=      5-min Rain = 0
KMC4 111905Z 18011G16KT 34/16 A3008 RMK A01 T03380163  RH  035%=      5-min Rain = 0
KMC4 111906Z 16014G19KT 34/17 A3008 RMK A01 T03400167  RH  036%=      5-min Rain = 0
KMC4 111907Z 15018KT 34/17 A3008 RMK A01 T03400166  RH  035%=      5-min Rain = 0
KMC4 111908Z 15019KT 34/16 A3008 RMK A01 T03370164  RH  036%=      5-min Rain = 0
KMC4 111909Z 15015KT 34/17 A3008 RMK A01 T03360165  RH  036%=      5-min Rain = 0
KMC4 111910Z 17015KT 34/17 A3008 RMK A01 T03360165  RH  036%=      5-min Rain = 0
KMC4 111911Z 14012G17KT 34/16 A3008 RMK A01 T03350164  RH  036%=      5-min Rain = 0
KMC4 111912Z 17009KT 34/16 A3008 RMK A01 T03350162  RH  036%=      5-min Rain = 0
KMC4 111913Z 17010KT 33/16 A3008 RMK A01 T03330162  RH  036%=      5-min Rain = 0
KMC4 111914Z 18010KT 33/16 A3008 RMK A01 T03320162  RH  036%=      5-min Rain = 0
KMC4 111915Z 17012KT 33/16 A3008 RMK A01 T03310160  RH  036%=      5-min Rain = 0
KMC4 111916Z 14016KT 33/16 A3008 RMK A01 T03300160  RH  036%=      5-min Rain = 0
KMC4 111917Z 16015G20KT 33/16 A3008 RMK A01 T03340161  RH  036%=      5-min Rain = 0
KMC4 111918Z 17015KT 34/16 A3008 RMK A01 T03360160  RH  035%=      5-min Rain = 0
KMC4 111919Z 14014G19KT 33/16 A3008 RMK A01 T03340161  RH  035%=      5-min Rain = 0
KMC4 111920Z 13011KT 34/16 A3008 RMK A01 T03350157  RH  034%=      5-min Rain = 0
KMC4 111921Z 14013G18KT 33/16 A3007 RMK A01 T03330157  RH  035%=      5-min Rain = 0
KMC4 111922Z 14009KT 33/16 A3008 RMK A01 T03310159  RH  035%=      5-min Rain = 0
KMC4 111923Z 12010KT 33/16 A3008 RMK A01 T03340159  RH  035%=      5-min Rain = 0
KMC4 111924Z 12013KT 34/16 A3007 RMK A01 T03370157  RH  034%=      5-min Rain = 0
KMC4 111925Z 15012G18KT 34/16 A3007 RMK A01 T03370157  RH  034%=      5-min Rain = 0
KMC4 111926Z 12013KT 34/16 A3007 RMK A01 T03370157  RH  034%=      5-min Rain = 0
KMC4 111927Z 13016KT 34/16 A3007 RMK A01 T03410159  RH  034%=      5-min Rain = 0
KMC4 111928Z 12017KT 34/16 A3007 RMK A01 T03420156  RH  033%=      5-min Rain = 0
KMC4 111929Z 11015KT 34/16 A3007 RMK A01 T03400155  RH  033%=      5-min Rain = 0
KMC4 111930Z 13011G17KT 34/15 A3008 RMK A01 T03350154  RH  034%=      5-min Rain = 0
KMC4 111931Z 14016KT 34/16 A3008 RMK A01 T03350156  RH  034%=      5-min Rain = 0
KMC4 111932Z 15014KT 34/16 A3008 RMK A01 T03380156  RH  033%=      5-min Rain = 0
KMC4 111933Z 15012KT 34/15 A3008 RMK A01 T03380154  RH  033%=      5-min Rain = 0
KMC4 111934Z 16009KT 34/16 A3008 RMK A01 T03360155  RH  034%=      5-min Rain = 0
KMC4 111935Z 14012KT 34/16 A3007 RMK A01 T03360156  RH  034%=      5-min Rain = 0
KMC4 111936Z 13013KT 34/15 A3007 RMK A01 T03380154  RH  033%=      5-min Rain = 0
KMC4 111937Z 16014KT 34/15 A3007 RMK A01 T03390152  RH  033%=      5-min Rain = 0
KMC4 111938Z 16014KT 34/15 A3007 RMK A01 T03380152  RH  033%=      5-min Rain = 0
KMC4 111939Z 14015KT 34/16 A3007 RMK A01 T03380156  RH  034%=      5-min Rain = 0
KMC4 111940Z 13013KT 34/16 A3007 RMK A01 T03420158  RH  033%=      5-min Rain = 0
KMC4 111941Z 12008KT 34/16 A3007 RMK A01 T03400155  RH  033%=      5-min Rain = 0
KMC4 111942Z 13010KT 34/16 A3007 RMK A01 T03370159  RH  034%=      5-min Rain = 0
KMC4 111943Z 15011KT 34/16 A3007 RMK A01 T03370155  RH  034%=      5-min Rain = 0
KMC4 111944Z 16009KT 34/15 A3007 RMK A01 T03360153  RH  033%=      5-min Rain = 0
KMC4 111945Z 19012KT 33/15 A3007 RMK A01 T03330153  RH  034%=      5-min Rain = 0
KMC4 111946Z 17012KT 34/15 A3007 RMK A01 T03350151  RH  033%=      5-min Rain = 0
KMC4 111947Z 16011KT 34/15 A3007 RMK A01 T03350153  RH  034%=      5-min Rain = 0
KMC4 111948Z 16010KT 34/15 A3007 RMK A01 T03350154  RH  034%=      5-min Rain = 0
KMC4 111949Z 17013KT 34/16 A3007 RMK A01 T03360157  RH  034%=      5-min Rain = 0
KMC4 111950Z 17011KT 34/16 A3006 RMK A01 T03390155  RH  033%=      5-min Rain = 0
KMC4 111951Z 16015KT 34/16 A3006 RMK A01 T03400158  RH  034%=      5-min Rain = 0
KMC4 111952Z 18013KT 34/16 A3007 RMK A01 T03420155  RH  033%=      5-min Rain = 0
KMC4 111953Z 16010KT 34/15 A3007 RMK A01 T03430150  RH  031%=      5-min Rain = 0
KMC4 111954Z 16008KT 34/15 A3006 RMK A01 T03380151  RH  033%=      5-min Rain = 0
KMC4 111955Z 16009KT 34/15 A3006 RMK A01 T03360152  RH  033%=      5-min Rain = 0
KMC4 111956Z 16007KT 33/15 A3006 RMK A01 T03340153  RH  034%=      5-min Rain = 0
KMC4 111957Z 16015G20KT 34/16 A3006 RMK A01 T03360156  RH  034%=      5-min Rain = 0
KMC4 111958Z 14015KT 34/16 A3006 RMK A01 T03390159  RH  034%=      5-min Rain = 0
KMC4 111959Z 14010KT 34/16 A3006 RMK A01 T03390159  RH  034%=      5-min Rain = 0
KMC4 112000Z 16008KT 34/16 A3006 RMK A01 T03400161  RH  034%=      5-min Rain = 0
KMC4 112001Z 15008KT 34/16 A3006 RMK A01 T03400160  RH  034%=      5-min Rain = 0
KMC4 112002Z 17010G16KT 34/16 A3006 RMK A01 T03410161  RH  034%=      5-min Rain = 0
KMC4 112003Z 16015KT 34/16 A3006 RMK A01 T03430160  RH  033%=      5-min Rain = 0
KMC4 112004Z 15015KT 35/16 A3006 RMK A01 T03450158  RH  033%=      5-min Rain = 0
KMC4 112005Z 15012KT 34/16 A3006 RMK A01 T03430157  RH  033%=      5-min Rain = 0
KMC4 112006Z 15013KT 34/16 A3006 RMK A01 T03420158  RH  033%=      5-min Rain = 0
KMC4 112007Z 12014KT 34/16 A3006 RMK A01 T03400158  RH  034%=      5-min Rain = 0
KMC4 112008Z 13016G21KT 34/16 A3006 RMK A01 T03400158  RH  034%=      5-min Rain = 0
KMC4 112009Z 15017KT 34/16 A3005 RMK A01 T03400156  RH  033%=      5-min Rain = 0
KMC4 112010Z 14015KT 34/16 A3005 RMK A01 T03400155  RH  033%=      5-min Rain = 0
KMC4 112011Z 13016G21KT 34/15 A3006 RMK A01 T03400152  RH  032%=      5-min Rain = 0
KMC4 112012Z 12016KT 34/15 A3005 RMK A01 T03400152  RH  032%=      5-min Rain = 0
KMC4 112013Z 12014KT 34/15 A3005 RMK A01 T03410151  RH  032%=      5-min Rain = 0
KMC4 112014Z 11013KT 34/15 A3005 RMK A01 T03400152  RH  032%=      5-min Rain = 0
KMC4 112015Z 11013KT 34/15 A3005 RMK A01 T03380154  RH  033%=      5-min Rain = 0
KMC4 112016Z 12014KT 34/16 A3005 RMK A01 T03370156  RH  034%=      5-min Rain = 0
KMC4 112017Z 12013KT 34/15 A3005 RMK A01 T03390152  RH  033%=      5-min Rain = 0
KMC4 112018Z 12013G19KT 34/15 A3005 RMK A01 T03400153  RH  033%=      5-min Rain = 0
KMC4 112019Z 14017KT 34/16 A3005 RMK A01 T03420158  RH  033%=      5-min Rain = 0
KMC4 112020Z 13014KT 34/16 A3005 RMK A01 T03410155  RH  033%=      5-min Rain = 0
KMC4 112021Z 15012KT 34/16 A3005 RMK A01 T03400158  RH  034%=      5-min Rain = 0
KMC4 112022Z 15011KT 34/16 A3005 RMK A01 T03400157  RH  033%=      5-min Rain = 0
KMC4 112023Z 14010KT 34/16 A3005 RMK A01 T03400156  RH  033%=      5-min Rain = 0
KMC4 112024Z 14008KT 34/16 A3005 RMK A01 T03410156  RH  033%=      5-min Rain = 0
KMC4 112025Z 16012KT 34/16 A3005 RMK A01 T03410158  RH  033%=      5-min Rain = 0
KMC4 112026Z 15015KT 34/16 A3005 RMK A01 T03430160  RH  034%=      5-min Rain = 0
KMC4 112027Z 14015KT 34/16 A3005 RMK A01 T03420156  RH  033%=      5-min Rain = 0
KMC4 112028Z 14012KT 34/15 A3005 RMK A01 T03410154  RH  033%=      5-min Rain = 0
KMC4 112029Z 14011KT 34/15 A3005 RMK A01 T03390154  RH  033%=      5-min Rain = 0
KMC4 112030Z 15010KT 34/16 A3005 RMK A01 T03370156  RH  034%=      5-min Rain = 0
KMC4 112031Z 17013KT 34/16 A3005 RMK A01 T03390162  RH  035%=      5-min Rain = 0
KMC4 112032Z 15015KT 34/16 A3005 RMK A01 T03410159  RH  034%=      5-min Rain = 0
KMC4 112033Z 16015KT 34/16 A3004 RMK A01 T03400157  RH  033%=      5-min Rain = 0
KMC4 112034Z 17014KT 34/15 A3005 RMK A01 T03400154  RH  033%=      5-min Rain = 0
KMC4 112035Z 18012KT 34/15 A3005 RMK A01 T03390153  RH  033%=      5-min Rain = 0
KMC4 112036Z 19011G16KT 34/15 A3004 RMK A01 T03380151  RH  032%=      5-min Rain = 0
KMC4 112037Z 18008KT 34/15 A3004 RMK A01 T03350150  RH  033%=      5-min Rain = 0
KMC4 112038Z 19009KT 33/15 A3004 RMK A01 T03340153  RH  034%=      5-min Rain = 0
KMC4 112039Z 18011KT 34/15 A3004 RMK A01 T03370154  RH  033%=      5-min Rain = 0
KMC4 112040Z 18014G19KT 34/15 A3004 RMK A01 T03360154  RH  034%=      5-min Rain = 0
KMC4 112041Z 17017KT 34/16 A3004 RMK A01 T03360155  RH  034%=      5-min Rain = 0
KMC4 112042Z 14015KT 34/16 A3004 RMK A01 T03410159  RH  034%=      5-min Rain = 0
KMC4 112043Z 15015KT 35/16 A3004 RMK A01 T03450157  RH  033%=      5-min Rain = 0
KMC4 112044Z 15012KT 34/16 A3004 RMK A01 T03440155  RH  032%=      5-min Rain = 0
KMC4 112045Z 14013KT 34/16 A3004 RMK A01 T03420156  RH  033%=      5-min Rain = 0
KMC4 112046Z 14013KT 34/16 A3004 RMK A01 T03440155  RH  032%=      5-min Rain = 0
KMC4 112047Z 14010G16KT 34/15 A3004 RMK A01 T03440152  RH  032%=      5-min Rain = 0
KMC4 112048Z 13016G21KT 34/15 A3004 RMK A01 T03430154  RH  032%=      5-min Rain = 0
KMC4 112049Z 14016KT 34/15 A3004 RMK A01 T03430150  RH  032%=      5-min Rain = 0
KMC4 112050Z 16014KT 34/15 A3004 RMK A01 T03420152  RH  032%=      5-min Rain = 0
KMC4 112051Z 15011KT 34/16 A3004 RMK A01 T03430156  RH  033%=      5-min Rain = 0
KMC4 112052Z 17011KT 35/15 A3004 RMK A01 T03470153  RH  031%=      5-min Rain = 0
KMC4 112053Z 16009KT 34/16 A3004 RMK A01 T03440155  RH  032%=      5-min Rain = 0
KMC4 112054Z 16011KT 35/16 A3004 RMK A01 T03460158  RH  033%=      5-min Rain = 0
KMC4 112055Z 15017KT 35/16 A3004 RMK A01 T03480157  RH  032%=      5-min Rain = 0
KMC4 112056Z 15016KT 35/16 A3004 RMK A01 T03480156  RH  032%=      5-min Rain = 0
KMC4 112057Z 15013KT 34/15 A3004 RMK A01 T03420154  RH  032%=      5-min Rain = 0
KMC4 112058Z 12012KT 34/15 A3003 RMK A01 T03380151  RH  033%=      5-min Rain = 0
KMC4 112059Z 13010KT 34/15 A3003 RMK A01 T03390152  RH  033%=      5-min Rain = 0
KMC4 112100Z 14012KT 34/15 A3003 RMK A01 T03410151  RH  032%=      5-min Rain = 0
KMC4 112101Z 12011KT 34/15 A3003 RMK A01 T03410152  RH  032%=      5-min Rain = 0
KMC4 112102Z 13011KT 34/15 A3003 RMK A01 T03400153  RH  033%=      5-min Rain = 0
KMC4 112103Z 13009KT 34/15 A3003 RMK A01 T03400154  RH  033%=      5-min Rain = 0
KMC4 112104Z 15012KT 34/15 A3003 RMK A01 T03410154  RH  033%=      5-min Rain = 0
KMC4 112105Z 15011KT 34/16 A3003 RMK A01 T03420156  RH  033%=      5-min Rain = 0
KMC4 112106Z 14014G23KT 34/16 A3003 RMK A01 T03420158  RH  033%=      5-min Rain = 0
KMC4 112107Z 15017G24KT 35/16 A3003 RMK A01 T03460157  RH  032%=      5-min Rain = 0
KMC4 112108Z 15013KT 35/16 A3003 RMK A01 T03450156  RH  032%=      5-min Rain = 0
KMC4 112109Z 14017KT 34/16 A3002 RMK A01 T03440155  RH  032%=      5-min Rain = 0
KMC4 112110Z 15013KT 34/16 A3003 RMK A01 T03440155  RH  032%=      5-min Rain = 0
KMC4 112111Z 15011KT 34/15 A3002 RMK A01 T03420152  RH  032%=      5-min Rain = 0
KMC4 112112Z 13010KT 34/15 A3002 RMK A01 T03400153  RH  033%=      5-min Rain = 0
KMC4 112113Z 12011KT 34/15 A3002 RMK A01 T03410150  RH  032%=      5-min Rain = 0
KMC4 112114Z 15014KT 34/15 A3002 RMK A01 T03410152  RH  032%=      5-min Rain = 0
KMC4 112115Z 17018KT 34/15 A3002 RMK A01 T03420151  RH  032%=      5-min Rain = 0
KMC4 112116Z 16015KT 34/15 A3002 RMK A01 T03420149  RH  031%=      5-min Rain = 0
KMC4 112117Z 17016KT 34/15 A3002 RMK A01 T03430151  RH  032%=      5-min Rain = 0
KMC4 112118Z 17015KT 34/15 A3002 RMK A01 T03420149  RH  032%=      5-min Rain = 0
KMC4 112119Z 17012KT 34/15 A3002 RMK A01 T03380148  RH  032%=      5-min Rain = 0
KMC4 112120Z 17011KT 34/15 A3002 RMK A01 T03380147  RH  032%=      5-min Rain = 0
KMC4 112121Z 17011KT 34/15 A3002 RMK A01 T03390147  RH  031%=      5-min Rain = 0
KMC4 112122Z 17011KT 34/15 A3002 RMK A01 T03410146  RH  031%=      5-min Rain = 0
KMC4 112123Z 16015KT 34/15 A3002 RMK A01 T03400147  RH  031%=      5-min Rain = 0
KMC4 112124Z 16012KT 34/15 A3002 RMK A01 T03410146  RH  031%=      5-min Rain = 0
KMC4 112125Z 16008KT 34/14 A3002 RMK A01 T03400144  RH  031%=      5-min Rain = 0
KMC4 112126Z 17007KT 34/15 A3002 RMK A01 T03370146  RH  032%=      5-min Rain = 0
KMC4 112127Z 17006KT 34/15 A3002 RMK A01 T03370149  RH  032%=      5-min Rain = 0
KMC4 112128Z 12006G15KT 34/15 A3001 RMK A01 T03390147  RH  031%=      5-min Rain = 0
KMC4 112129Z 14013KT 34/15 A3001 RMK A01 T03410150  RH  032%=      5-min Rain = 0
KMC4 112130Z 14015KT 35/15 A3001 RMK A01 T03460153  RH  031%=      5-min Rain = 0
KMC4 112131Z 16016KT 35/15 A3001 RMK A01 T03500149  RH  030%=      5-min Rain = 0
KMC4 112132Z 16015KT 35/15 A3001 RMK A01 T03480147  RH  030%=      5-min Rain = 0
KMC4 112133Z 17016KT 35/15 A3001 RMK A01 T03450146  RH  030%=      5-min Rain = 0
KMC4 112134Z 18011KT 34/14 A3001 RMK A01 T03410144  RH  031%=      5-min Rain = 0
KMC4 112135Z 19011KT 34/15 A3001 RMK A01 T03400145  RH  031%=      5-min Rain = 0
KMC4 112136Z 20010KT 34/14 A3001 RMK A01 T03410143  RH  030%=      5-min Rain = 0
KMC4 112137Z 20010KT 34/14 A3001 RMK A01 T03400144  RH  031%=      5-min Rain = 0
KMC4 112138Z 18009KT 34/15 A3001 RMK A01 T03410145  RH  031%=      5-min Rain = 0
KMC4 112139Z 19014KT 34/14 A3001 RMK A01 T03430141  RH  030%=      5-min Rain = 0
KMC4 112140Z 19013KT 34/14 A3001 RMK A01 T03430139  RH  029%=      5-min Rain = 0
KMC4 112141Z 17014KT 34/14 A3001 RMK A01 T03430139  RH  029%=      5-min Rain = 0
KMC4 112142Z 17011KT 34/14 A3001 RMK A01 T03440137  RH  029%=      5-min Rain = 0
KMC4 112143Z 16010G15KT 34/14 A3001 RMK A01 T03420139  RH  030%=      5-min Rain = 0
KMC4 112144Z 14013KT 34/14 A3001 RMK A01 T03440137  RH  029%=      5-min Rain = 0
KMC4 112145Z 15016G21KT 35/14 A3001 RMK A01 T03450137  RH  029%=      5-min Rain = 0
KMC4 112146Z 16014KT 34/14 A3001 RMK A01 T03440138  RH  029%=      5-min Rain = 0
KMC4 112147Z 16015KT 34/14 A3001 RMK A01 T03440141  RH  030%=      5-min Rain = 0
KMC4 112148Z 17015KT 34/14 A3001 RMK A01 T03440138  RH  029%=      5-min Rain = 0
KMC4 112149Z 16013KT 34/14 A3001 RMK A01 T03430135  RH  029%=      5-min Rain = 0
KMC4 112150Z 17012KT 34/14 A3001 RMK A01 T03430139  RH  029%=      5-min Rain = 0
KMC4 112151Z 18012KT 34/14 A3001 RMK A01 T03440139  RH  029%=      5-min Rain = 0
KMC4 112152Z 18010KT 34/13 A3001 RMK A01 T03430134  RH  028%=      5-min Rain = 0
KMC4 112153Z 15010KT 34/14 A3001 RMK A01 T03420138  RH  029%=      5-min Rain = 0
KMC4 112154Z 16009KT 35/14 A3001 RMK A01 T03450136  RH  029%=      5-min Rain = 0
KMC4 112155Z 13010KT 35/14 A3001 RMK A01 T03450137  RH  029%=      5-min Rain = 0
KMC4 112156Z 13013G18KT 35/14 A30 RMK A01 T03460135  RH  028%=      5-min Rain = 0
KMC4 112157Z 13016KT 35/14 A30 RMK A01 T03460135  RH  028%=      5-min Rain = 0
KMC4 112158Z 14015G20KT 35/14 A30 RMK A01 T03460136  RH  028%=      5-min Rain = 0
KMC4 112159Z 14017KT 35/14 A30 RMK A01 T03460137  RH  029%=      5-min Rain = 0
KMC4 112200Z 13014KT 35/14 A30 RMK A01 T03460138  RH  029%=      5-min Rain = 0
KMC4 112201Z 15017KT 35/14 A30 RMK A01 T03450140  RH  029%=      5-min Rain = 0
KMC4 112202Z 14014KT 34/14 A30 RMK A01 T03430139  RH  029%=      5-min Rain = 0
KMC4 112203Z 13012KT 34/14 A30 RMK A01 T03430139  RH  029%=      5-min Rain = 0
KMC4 112204Z 14009KT 34/14 A30 RMK A01 T03420138  RH  029%=      5-min Rain = 0
KMC4 112205Z 14012G17KT 34/14 A30 RMK A01 T03420139  RH  030%=      5-min Rain = 0
KMC4 112206Z 15011KT 34/14 A30 RMK A01 T03420141  RH  030%=      5-min Rain = 0
KMC4 112207Z 15011KT 35/14 A30 RMK A01 T03460140  RH  029%=      5-min Rain = 0
KMC4 112208Z 16016KT 35/14 A30 RMK A01 T03470137  RH  028%=      5-min Rain = 0
KMC4 112209Z 16011KT 34/13 A30 RMK A01 T03440134  RH  028%=      5-min Rain = 0
KMC4 112210Z 15014KT 34/14 A30 RMK A01 T03410136  RH  029%=      5-min Rain = 0
KMC4 112211Z 17014KT 34/14 A30 RMK A01 T03430140  RH  030%=      5-min Rain = 0
KMC4 112212Z 17011KT 34/14 A30 RMK A01 T03440137  RH  029%=      5-min Rain = 0
KMC4 112213Z 16014G19KT 34/14 A2999 RMK A01 T03420137  RH  029%=      5-min Rain = 0
KMC4 112214Z 15013KT 34/14 A30 RMK A01 T03420136  RH  029%=      5-min Rain = 0
KMC4 112215Z 15010KT 34/14 A2999 RMK A01 T03430135  RH  029%=      5-min Rain = 0
KMC4 112216Z 15012KT 34/14 A2999 RMK A01 T03430135  RH  029%=      5-min Rain = 0
KMC4 112217Z 16009KT 34/14 A2999 RMK A01 T03420137  RH  029%=      5-min Rain = 0
KMC4 112218Z 18012KT 34/14 A2999 RMK A01 T03430135  RH  029%=      5-min Rain = 0
KMC4 112219Z 19012G17KT 34/13 A2999 RMK A01 T03430134  RH  028%=      5-min Rain = 0
KMC4 112220Z 19011KT 34/13 A2999 RMK A01 T03430133  RH  028%=      5-min Rain = 0
KMC4 112221Z 17013KT 34/13 A2999 RMK A01 T03420134  RH  029%=      5-min Rain = 0
KMC4 112222Z 16012KT 34/14 A2999 RMK A01 T03430135  RH  029%=      5-min Rain = 0
KMC4 112223Z 15012KT 34/13 A2999 RMK A01 T03440133  RH  028%=      5-min Rain = 0
KMC4 112224Z 15013KT 34/13 A2999 RMK A01 T03430132  RH  028%=      5-min Rain = 0
KMC4 112225Z 16011KT 34/13 A2999 RMK A01 T03430132  RH  028%=      5-min Rain = 0
KMC4 112226Z 17010KT 34/13 A2999 RMK A01 T03430134  RH  028%=      5-min Rain = 0
KMC4 112227Z 15012KT 35/14 A2999 RMK A01 T03460138  RH  029%=      5-min Rain = 0
KMC4 112228Z 14014KT 35/14 A2999 RMK A01 T03480137  RH  028%=      5-min Rain = 0
KMC4 112229Z 12013KT 35/13 A2999 RMK A01 T03460133  RH  028%=      5-min Rain = 0
KMC4 112230Z 13014KT 34/13 A2999 RMK A01 T03440134  RH  028%=      5-min Rain = 0
KMC4 112231Z 15012KT 34/13 A2999 RMK A01 T03440134  RH  028%=      5-min Rain = 0
KMC4 112232Z 16010KT 35/14 A2999 RMK A01 T03460138  RH  029%=      5-min Rain = 0
KMC4 112233Z 15012KT 35/14 A2999 RMK A01 T03470139  RH  029%=      5-min Rain = 0
KMC4 112234Z 17012KT 35/14 A2999 RMK A01 T03480136  RH  028%=      5-min Rain = 0
KMC4 112235Z 13010KT 34/14 A2999 RMK A01 T03440137  RH  029%=      5-min Rain = 0
KMC4 112236Z 13009KT 34/14 A2999 RMK A01 T03430138  RH  029%=      5-min Rain = 0
KMC4 112237Z 12010G15KT 34/14 A2999 RMK A01 T03430138  RH  029%=      5-min Rain = 0
KMC4 112238Z 12012KT 34/14 A2999 RMK A01 T03420136  RH  029%=      5-min Rain = 0
KMC4 112239Z 11010KT 34/14 A2999 RMK A01 T03440138  RH  029%=      5-min Rain = 0
KMC4 112240Z 15009KT 35/14 A2999 RMK A01 T03450138  RH  029%=      5-min Rain = 0
KMC4 112241Z 16012G17KT 35/14 A2999 RMK A01 T03470141  RH  029%=      5-min Rain = 0
KMC4 112242Z 16009KT 35/14 A2999 RMK A01 T03470138  RH  029%=      5-min Rain = 0
KMC4 112243Z 14011KT 35/14 A2999 RMK A01 T03460140  RH  029%=      5-min Rain = 0
KMC4 112244Z 14012KT 35/14 A2999 RMK A01 T03470138  RH  028%=      5-min Rain = 0
KMC4 112245Z 14010KT 35/14 A2999 RMK A01 T03470137  RH  028%=      5-min Rain = 0
KMC4 112246Z 14011KT 35/14 A2999 RMK A01 T03450137  RH  029%=      5-min Rain = 0
KMC4 112247Z 12012KT 35/14 A2999 RMK A01 T03450135  RH  028%=      5-min Rain = 0
KMC4 112248Z 14011KT 35/14 A2999 RMK A01 T03460138  RH  029%=      5-min Rain = 0
KMC4 112249Z 15011KT 35/14 A2999 RMK A01 T03470138  RH  028%=      5-min Rain = 0
KMC4 112250Z 13011KT 35/14 A2999 RMK A01 T03470139  RH  029%=      5-min Rain = 0
KMC4 112251Z 12012KT 35/14 A2999 RMK A01 T03470135  RH  028%=      5-min Rain = 0
KMC4 112252Z 13011KT 35/14 A2999 RMK A01 T03470135  RH  028%=      5-min Rain = 0
KMC4 112253Z 13015KT 35/14 A2999 RMK A01 T03470135  RH  028%=      5-min Rain = 0
KMC4 112254Z 15014KT 35/13 A2999 RMK A01 T03460133  RH  028%=      5-min Rain = 0
KMC4 112255Z 15016KT 34/14 A2999 RMK A01 T03440135  RH  028%=      5-min Rain = 0
KMC4 112256Z 15013KT 34/14 A2999 RMK A01 T03430137  RH  029%=      5-min Rain = 0
KMC4 112257Z 14011G18KT 34/14 A2999 RMK A01 T03430139  RH  029%=      5-min Rain = 0
KMC4 112258Z 13014KT 34/14 A2999 RMK A01 T03440135  RH  028%=      5-min Rain = 0
KMC4 112259Z 13013KT 35/14 A2999 RMK A01 T03450135  RH  028%=      5-min Rain = 0
KMC4 112300Z 14012KT 35/14 A2999 RMK A01 T03450137  RH  029%=      5-min Rain = 0
KMC4 112301Z 15012KT 35/14 A2999 RMK A01 T03460137  RH  029%=      5-min Rain = 0
KMC4 112302Z 16012KT 35/14 A2999 RMK A01 T03450135  RH  028%=      5-min Rain = 0
KMC4 112303Z 15008KT 34/14 A2999 RMK A01 T03430135  RH  029%=      5-min Rain = 0
KMC4 112304Z 15010KT 34/14 A2999 RMK A01 T03420137  RH  029%=      5-min Rain = 0
KMC4 112305Z 15012KT 34/13 A2999 RMK A01 T03440133  RH  028%=      5-min Rain = 0
KMC4 112306Z 16012KT 34/13 A2999 RMK A01 T03430134  RH  028%=      5-min Rain = 0
KMC4 112307Z 14014KT 34/14 A2999 RMK A01 T03430135  RH  029%=      5-min Rain = 0
KMC4 112308Z 14013KT 34/13 A2999 RMK A01 T03430133  RH  028%=      5-min Rain = 0
KMC4 112309Z 15012KT 34/13 A2999 RMK A01 T03430132  RH  028%=      5-min Rain = 0
KMC4 112310Z 16013KT 34/13 A2999 RMK A01 T03430131  RH  028%=      5-min Rain = 0
KMC4 112311Z 15012KT 34/13 A2999 RMK A01 T03410130  RH  028%=      5-min Rain = 0
KMC4 112312Z 15011KT 34/13 A2999 RMK A01 T03410130  RH  028%=      5-min Rain = 0
KMC4 112313Z 14012KT 34/13 A2999 RMK A01 T03410128  RH  028%=      5-min Rain = 0
KMC4 112314Z 13011KT 34/13 A2999 RMK A01 T03410128  RH  028%=      5-min Rain = 0
KMC4 112315Z 14012KT 34/13 A2999 RMK A01 T03420130  RH  028%=      5-min Rain = 0
KMC4 112316Z 13012KT 34/13 A2999 RMK A01 T03430131  RH  028%=      5-min Rain = 0
KMC4 112317Z 14011KT 34/13 A2999 RMK A01 T03430131  RH  028%=      5-min Rain = 0
KMC4 112318Z 14008KT 34/13 A2999 RMK A01 T03440133  RH  028%=      5-min Rain = 0
KMC4 112319Z 13014KT 34/13 A2999 RMK A01 T03440133  RH  028%=      5-min Rain = 0
KMC4 112320Z 13016KT 34/13 A2999 RMK A01 T03440133  RH  028%=      5-min Rain = 0
KMC4 112321Z 14015KT 34/13 A2999 RMK A01 T03440134  RH  028%=      5-min Rain = 0
KMC4 112322Z 14012KT 34/14 A2999 RMK A01 T03440135  RH  028%=      5-min Rain = 0
KMC4 112323Z 15014KT 34/13 A2999 RMK A01 T03430134  RH  028%=      5-min Rain = 0
KMC4 112324Z 14012KT 34/13 A2999 RMK A01 T03430133  RH  028%=      5-min Rain = 0
KMC4 112325Z 14011KT 34/14 A2999 RMK A01 T03430135  RH  028%=      5-min Rain = 0
KMC4 112326Z 16010G15KT 34/14 A2999 RMK A01 T03430135  RH  028%=      5-min Rain = 0
KMC4 112327Z 16012KT 34/14 A2999 RMK A01 T03440135  RH  028%=      5-min Rain = 0
KMC4 112328Z 17010KT 34/14 A2999 RMK A01 T03420135  RH  029%=      5-min Rain = 0
KMC4 112329Z 15008KT 34/13 A2999 RMK A01 T03410134  RH  029%=      5-min Rain = 0
KMC4 112330Z 14011KT 34/14 A2999 RMK A01 T03410135  RH  029%=      5-min Rain = 0
KMC4 112331Z 14014KT 34/14 A2999 RMK A01 T03420136  RH  029%=      5-min Rain = 0
KMC4 112332Z 15012KT 34/13 A2999 RMK A01 T03430133  RH  028%=      5-min Rain = 0
KMC4 112333Z 15011KT 34/13 A2999 RMK A01 T03430134  RH  028%=      5-min Rain = 0
KMC4 112334Z 15012KT 34/13 A2999 RMK A01 T03420133  RH  028%=      5-min Rain = 0
KMC4 112335Z 15012KT 34/13 A2999 RMK A01 T03420132  RH  028%=      5-min Rain = 0
KMC4 112336Z 15014KT 34/13 A2999 RMK A01 T03420132  RH  028%=      5-min Rain = 0
KMC4 112337Z 15012KT 34/13 A2999 RMK A01 T03420131  RH  028%=      5-min Rain = 0
KMC4 112338Z 14012KT 34/13 A2999 RMK A01 T03420134  RH  029%=      5-min Rain = 0
KMC4 112339Z 14011KT 34/14 A2999 RMK A01 T03430135  RH  029%=      5-min Rain = 0
KMC4 112340Z 15013KT 34/14 A2999 RMK A01 T03430136  RH  029%=      5-min Rain = 0
KMC4 112341Z 12012KT 34/14 A2999 RMK A01 T03410136  RH  029%=      5-min Rain = 0
KMC4 112342Z 14011KT 34/14 A2999 RMK A01 T03400137  RH  029%=      5-min Rain = 0
KMC4 112343Z 13013KT 34/14 A2999 RMK A01 T03400138  RH  030%=      5-min Rain = 0
KMC4 112344Z 12012KT 34/14 A2999 RMK A01 T03400138  RH  030%=      5-min Rain = 0
KMC4 112345Z 13012KT 34/14 A2998 RMK A01 T03400138  RH  029%=      5-min Rain = 0
KMC4 112346Z 13010KT 34/14 A2998 RMK A01 T03400139  RH  030%=      5-min Rain = 0
KMC4 112347Z 16014KT 34/14 A2998 RMK A01 T03400142  RH  030%=      5-min Rain = 0
KMC4 112348Z 16014KT 34/14 A2998 RMK A01 T03400144  RH  031%=      5-min Rain = 0
KMC4 112349Z 14014KT 34/14 A2998 RMK A01 T03390144  RH  031%=      5-min Rain = 0
KMC4 112350Z 14011KT 34/14 A2999 RMK A01 T03390144  RH  031%=      5-min Rain = 0
KMC4 112351Z 14012KT 34/14 A2999 RMK A01 T03390143  RH  031%=      5-min Rain = 0
KMC4 112352Z 15015KT 34/14 A2999 RMK A01 T03390144  RH  031%=      5-min Rain = 0
KMC4 112353Z 15015KT 34/14 A2999 RMK A01 T03380142  RH  031%=      5-min Rain = 0
KMC4 112354Z 14012KT 34/14 A2999 RMK A01 T03380143  RH  031%=      5-min Rain = 0
KMC4 112355Z 14011KT 34/14 A2999 RMK A01 T03380144  RH  031%=      5-min Rain = 0
KMC4 112356Z 15013KT 34/14 A2999 RMK A01 T03390144  RH  031%=      5-min Rain = 0
KMC4 112357Z 15014KT 34/14 A2999 RMK A01 T03400143  RH  031%=      5-min Rain = 0
KMC4 112358Z 15012KT 34/14 A2999 RMK A01 T03390141  RH  030%=      5-min Rain = 0
KMC4 112359Z 14013KT 34/14 A2999 RMK A01 T03390141  RH  031%=      5-min Rain = 0
KMC4 120000Z 15013KT 34/14 A2999 RMK A01 T03380140  RH  030%=      5-min Rain = 0
KMC4 120001Z 14011KT 34/14 A2999 RMK A01 T03370139  RH  030%=      5-min Rain = 0
KMC4 120002Z 14011KT 34/14 A2999 RMK A01 T03370141  RH  031%=      5-min Rain = 0
KMC4 120003Z 15013KT 34/14 A2999 RMK A01 T03370141  RH  031%=      5-min Rain = 0
KMC4 120004Z 14013KT 34/14 A2999 RMK A01 T03370140  RH  030%=      5-min Rain = 0
KMC4 120005Z 14012KT 34/14 A2999 RMK A01 T03380141  RH  031%=      5-min Rain = 0
KMC4 120006Z 13012KT 34/14 A2999 RMK A01 T03380142  RH  031%=      5-min Rain = 0
KMC4 120007Z 12012KT 34/14 A2999 RMK A01 T03390141  RH  031%=      5-min Rain = 0
KMC4 120008Z 12011KT 34/14 A2999 RMK A01 T03390143  RH  031%=      5-min Rain = 0
KMC4 120009Z 12011KT 34/14 A2999 RMK A01 T03380142  RH  031%=      5-min Rain = 0
KMC4 120010Z 13009KT 34/14 A2999 RMK A01 T03370142  RH  031%=      5-min Rain = 0
KMC4 120011Z 15010KT 34/14 A2999 RMK A01 T03380144  RH  031%=      5-min Rain = 0
KMC4 120012Z 16012KT 34/14 A2999 RMK A01 T03390144  RH  031%=      5-min Rain = 0
KMC4 120013Z 16011KT 34/14 A2999 RMK A01 T03390144  RH  031%=      5-min Rain = 0
KMC4 120014Z 16009KT 34/15 A2999 RMK A01 T03380145  RH  031%=      5-min Rain = 0
KMC4 120015Z 15012KT 34/14 A2999 RMK A01 T03380144  RH  031%=      5-min Rain = 0
KMC4 120016Z 15013KT 34/14 A2999 RMK A01 T03370143  RH  031%=      5-min Rain = 0
KMC4 120017Z 16013KT 34/14 A2999 RMK A01 T03370143  RH  031%=      5-min Rain = 0
KMC4 120018Z 15010KT 34/14 A2999 RMK A01 T03360143  RH  031%=      5-min Rain = 0
KMC4 120019Z 14011KT 34/14 A2999 RMK A01 T03360144  RH  031%=      5-min Rain = 0
KMC4 120020Z 15013KT 34/14 A2999 RMK A01 T03370144  RH  031%=      5-min Rain = 0
KMC4 120021Z 14011KT 34/14 A2999 RMK A01 T03380144  RH  031%=      5-min Rain = 0
KMC4 120022Z 14010KT 34/14 A2999 RMK A01 T03380142  RH  031%=      5-min Rain = 0
KMC4 120023Z 12011KT 34/14 A2999 RMK A01 T03370143  RH  031%=      5-min Rain = 0
KMC4 120024Z 12010KT 34/14 A2999 RMK A01 T03370144  RH  031%=      5-min Rain = 0
KMC4 120025Z 12012KT 34/14 A2999 RMK A01 T03370144  RH  031%=      5-min Rain = 0
KMC4 120026Z 13013KT 34/14 A2999 RMK A01 T03380142  RH  031%=      5-min Rain = 0
KMC4 120027Z 12012KT 34/14 A2999 RMK A01 T03370143  RH  031%=      5-min Rain = 0
KMC4 120028Z 13014KT 34/14 A2999 RMK A01 T03360144  RH  032%=      5-min Rain = 0
KMC4 120029Z 13011KT 34/15 A2999 RMK A01 T03360146  RH  032%=      5-min Rain = 0
KMC4 120030Z 13015KT 34/15 A2999 RMK A01 T03360146  RH  032%=      5-min Rain = 0
KMC4 120031Z 13013KT 34/15 A2999 RMK A01 T03360146  RH  032%=      5-min Rain = 0
KMC4 120032Z 14016KT 34/15 A2999 RMK A01 T03350145  RH  032%=      5-min Rain = 0
KMC4 120033Z 14013KT 34/14 A2999 RMK A01 T03350144  RH  032%=      5-min Rain = 0
KMC4 120034Z 14010KT 34/15 A2999 RMK A01 T03350145  RH  032%=      5-min Rain = 0
KMC4 120035Z 13010KT 34/15 A2999 RMK A01 T03350145  RH  032%=      5-min Rain = 0
KMC4 120036Z 14010KT 34/15 A2999 RMK A01 T03350146  RH  032%=      5-min Rain = 0
KMC4 120037Z 13012KT 34/15 A2999 RMK A01 T03350147  RH  032%=      5-min Rain = 0
KMC4 120038Z 14011KT 34/15 A2999 RMK A01 T03350148  RH  032%=      5-min Rain = 0
KMC4 120039Z 14010KT 34/15 A2999 RMK A01 T03360148  RH  032%=      5-min Rain = 0
KMC4 120040Z 13012KT 34/15 A2999 RMK A01 T03360149  RH  033%=      5-min Rain = 0
KMC4 120041Z 13014KT 34/15 A2999 RMK A01 T03360150  RH  033%=      5-min Rain = 0
KMC4 120042Z 13013KT 34/15 A2999 RMK A01 T03350149  RH  033%=      5-min Rain = 0
KMC4 120043Z 15012KT 33/15 A2999 RMK A01 T03340149  RH  033%=      5-min Rain = 0
KMC4 120044Z 14011KT 33/15 A2999 RMK A01 T03340148  RH  033%=      5-min Rain = 0
KMC4 120045Z 15009KT 33/15 A2999 RMK A01 T03340147  RH  032%=      5-min Rain = 0
KMC4 120046Z 15013KT 33/15 A2999 RMK A01 T03340146  RH  032%=      5-min Rain = 0
KMC4 120047Z 16012KT 33/14 A2999 RMK A01 T03340140  RH  031%=      5-min Rain = 0
KMC4 120048Z 16010KT 33/14 A30 RMK A01 T03330142  RH  032%=      5-min Rain = 0
KMC4 120049Z 15010KT 33/14 A30 RMK A01 T03330142  RH  032%=      5-min Rain = 0
KMC4 120050Z 15012KT 33/14 A30 RMK A01 T03320142  RH  032%=      5-min Rain = 0
KMC4 120051Z 14011KT 33/14 A30 RMK A01 T03330140  RH  031%=      5-min Rain = 0
KMC4 120052Z 15011KT 33/14 A30 RMK A01 T03330140  RH  031%=      5-min Rain = 0
KMC4 120053Z 14011KT 33/14 A30 RMK A01 T03330140  RH  031%=      5-min Rain = 0
KMC4 120054Z 14009KT 33/14 A30 RMK A01 T03330143  RH  032%=      5-min Rain = 0
KMC4 120055Z 14009G14KT 33/14 A30 RMK A01 T03320143  RH  032%=      5-min Rain = 0
KMC4 120056Z 15012KT 33/14 A30 RMK A01 T03320139  RH  031%=      5-min Rain = 0
KMC4 120057Z 14012KT 33/14 A30 RMK A01 T03320141  RH  032%=      5-min Rain = 0
KMC4 120058Z 15010KT 33/14 A2999 RMK A01 T03310142  RH  032%=      5-min Rain = 0
KMC4 120059Z 15011KT 33/14 A2999 RMK A01 T03310142  RH  032%=      5-min Rain = 0
KMC4 120100Z 15009KT 33/14 A2999 RMK A01 T03310140  RH  032%=      5-min Rain = 0
KMC4 120101Z 14010KT 33/14 A2999 RMK A01 T03310142  RH  032%=      5-min Rain = 0
KMC4 120102Z 15008KT 33/14 A2999 RMK A01 T03310140  RH  032%=      5-min Rain = 0
KMC4 120103Z 16010KT 33/14 A2999 RMK A01 T03310142  RH  032%=      5-min Rain = 0
KMC4 120104Z 15009KT 33/14 A2999 RMK A01 T03310144  RH  032%=      5-min Rain = 0
KMC4 120105Z 15011KT 33/15 A2999 RMK A01 T03310145  RH  033%=      5-min Rain = 0
KMC4 120106Z 15010KT 33/15 A2999 RMK A01 T03310145  RH  033%=      5-min Rain = 0
KMC4 120107Z 14010KT 33/15 A2999 RMK A01 T03300146  RH  033%=      5-min Rain = 0
KMC4 120108Z 13014KT 33/14 A2999 RMK A01 T03300144  RH  033%=      5-min Rain = 0
KMC4 120109Z 14012KT 33/14 A2999 RMK A01 T03290144  RH  033%=      5-min Rain = 0
KMC4 120110Z 14011KT 33/14 A2999 RMK A01 T03290144  RH  033%=      5-min Rain = 0
KMC4 120111Z 14015KT 33/14 A2999 RMK A01 T03290143  RH  033%=      5-min Rain = 0
KMC4 120112Z 14013KT 33/14 A2999 RMK A01 T03290142  RH  032%=      5-min Rain = 0
KMC4 120113Z 15012KT 33/14 A2999 RMK A01 T03280142  RH  032%=      5-min Rain = 0
KMC4 120114Z 15011KT 33/14 A2999 RMK A01 T03280142  RH  033%=      5-min Rain = 0
KMC4 120115Z 15012KT 33/14 A2999 RMK A01 T03270142  RH  033%=      5-min Rain = 0
KMC4 120116Z 15011KT 33/14 A2999 RMK A01 T03270142  RH  033%=      5-min Rain = 0
KMC4 120117Z 15012KT 33/14 A2999 RMK A01 T03270142  RH  033%=      5-min Rain = 0
KMC4 120118Z 15012KT 33/14 A2999 RMK A01 T03260143  RH  033%=      5-min Rain = 0
KMC4 120119Z 14011KT 33/14 A2999 RMK A01 T03260143  RH  033%=      5-min Rain = 0
KMC4 120120Z 14010KT 33/14 A2999 RMK A01 T03260143  RH  033%=      5-min Rain = 0
KMC4 120121Z 15012KT 33/15 A2999 RMK A01 T03260145  RH  034%=      5-min Rain = 0
KMC4 120122Z 15010KT 33/15 A2999 RMK A01 T03250147  RH  034%=      5-min Rain = 0
KMC4 120123Z 15012KT 32/15 A2999 RMK A01 T03240148  RH  035%=      5-min Rain = 0
KMC4 120124Z 15012KT 32/15 A2999 RMK A01 T03230147  RH  035%=      5-min Rain = 0
KMC4 120125Z 14011KT 32/15 A2999 RMK A01 T03230146  RH  034%=      5-min Rain = 0
KMC4 120126Z 14009KT 32/15 A2999 RMK A01 T03230148  RH  035%=      5-min Rain = 0
KMC4 120127Z 13009KT 32/15 A2999 RMK A01 T03220148  RH  035%=      5-min Rain = 0
KMC4 120128Z 14009KT 32/15 A2999 RMK A01 T03220148  RH  035%=      5-min Rain = 0
KMC4 120129Z 14009KT 32/15 A2999 RMK A01 T03210148  RH  035%=      5-min Rain = 0
KMC4 120130Z 14011KT 32/15 A2999 RMK A01 T03210147  RH  035%=      5-min Rain = 0
KMC4 120131Z 14012KT 32/15 A2999 RMK A01 T03210148  RH  035%=      5-min Rain = 0
KMC4 120132Z 14013KT 32/15 A2999 RMK A01 T03210151  RH  036%=      5-min Rain = 0
KMC4 120133Z 14012KT 32/15 A2999 RMK A01 T03200153  RH  036%=      5-min Rain = 0
KMC4 120134Z 14010KT 32/15 A2999 RMK A01 T03200153  RH  037%=      5-min Rain = 0
KMC4 120135Z 14010KT 32/15 A2999 RMK A01 T03190154  RH  037%=      5-min Rain = 0
KMC4 120136Z 14009KT 32/15 A2999 RMK A01 T03180154  RH  037%=      5-min Rain = 0
KMC4 120137Z 14009KT 32/16 A2999 RMK A01 T03180155  RH  037%=      5-min Rain = 0
KMC4 120138Z 13009KT 32/16 A2999 RMK A01 T03180155  RH  037%=      5-min Rain = 0
KMC4 120139Z 13009KT 32/16 A2999 RMK A01 T03170155  RH  038%=      5-min Rain = 0
KMC4 120140Z 13009KT 32/16 A2999 RMK A01 T03170155  RH  038%=      5-min Rain = 0
KMC4 120141Z 13010KT 32/16 A2999 RMK A01 T03160155  RH  038%=      5-min Rain = 0
KMC4 120142Z 14009KT 32/16 A30 RMK A01 T03160155  RH  038%=      5-min Rain = 0
KMC4 120143Z 14011KT 32/16 A30 RMK A01 T03160155  RH  038%=      5-min Rain = 0
KMC4 120144Z 14011KT 32/16 A30 RMK A01 T03160155  RH  038%=      5-min Rain = 0
KMC4 120145Z 13010KT 32/16 A30 RMK A01 T03160155  RH  038%=      5-min Rain = 0
KMC4 120146Z 14010KT 32/16 A30 RMK A01 T03150155  RH  038%=      5-min Rain = 0
KMC4 120147Z 14008KT 32/16 A30 RMK A01 T03150155  RH  038%=      5-min Rain = 0
KMC4 120148Z 13008KT 32/16 A30 RMK A01 T03150155  RH  038%=      5-min Rain = 0
KMC4 120149Z 13007KT 32/16 A30 RMK A01 T03150155  RH  038%=      5-min Rain = 0
KMC4 120150Z 13008KT 31/16 A30 RMK A01 T03140156  RH  038%=      5-min Rain = 0
KMC4 120151Z 13009KT 31/16 A30 RMK A01 T03130155  RH  039%=      5-min Rain = 0
KMC4 120152Z 14009KT 31/16 A30 RMK A01 T03130155  RH  039%=      5-min Rain = 0
KMC4 120153Z 13009KT 31/16 A30 RMK A01 T03130155  RH  039%=      5-min Rain = 0
KMC4 120154Z 14008KT 31/16 A30 RMK A01 T03130155  RH  039%=      5-min Rain = 0
KMC4 120155Z 13009KT 31/16 A30 RMK A01 T03120155  RH  039%=      5-min Rain = 0
KMC4 120156Z 14008KT 31/16 A30 RMK A01 T03120155  RH  039%=      5-min Rain = 0
KMC4 120157Z 13009KT 31/16 A30 RMK A01 T03120155  RH  039%=      5-min Rain = 0
KMC4 120158Z 14009KT 31/16 A30 RMK A01 T03110155  RH  039%=      5-min Rain = 0
KMC4 120159Z 13008KT 31/15 A30 RMK A01 T03110154  RH  039%=      5-min Rain = 0
KMC4 120200Z 14010KT 31/15 A30 RMK A01 T03110154  RH  039%=      5-min Rain = 0
KMC4 120201Z 13010KT 31/15 A30 RMK A01 T03110154  RH  039%=      5-min Rain = 0
KMC4 120202Z 13009KT 31/15 A30 RMK A01 T03110154  RH  039%=      5-min Rain = 0
KMC4 120203Z 13009KT 31/15 A30 RMK A01 T03100153  RH  039%=      5-min Rain = 0
KMC4 120204Z 13008KT 31/15 A30 RMK A01 T03100154  RH  039%=      5-min Rain = 0
KMC4 120205Z 13008KT 31/15 A30 RMK A01 T03100154  RH  039%=      5-min Rain = 0
KMC4 120206Z 13008KT 31/15 A30 RMK A01 T03090154  RH  039%=      5-min Rain = 0
KMC4 120207Z 13008KT 31/15 A30 RMK A01 T03090154  RH  039%=      5-min Rain = 0
KMC4 120208Z 13008KT 31/15 A30 RMK A01 T03090154  RH  039%=      5-min Rain = 0
KMC4 120209Z 13009KT 31/16 A3001 RMK A01 T03080155  RH  039%=      5-min Rain = 0
KMC4 120210Z 13007KT 31/15 A3001 RMK A01 T03080154  RH  040%=      5-min Rain = 0
KMC4 120211Z 13009KT 31/16 A3001 RMK A01 T03070155  RH  040%=      5-min Rain = 0
KMC4 120212Z 13008KT 31/16 A3001 RMK A01 T03070155  RH  040%=      5-min Rain = 0
KMC4 120213Z 13008KT 31/16 A3001 RMK A01 T03070155  RH  040%=      5-min Rain = 0
KMC4 120214Z 13007KT 31/16 A3001 RMK A01 T03060155  RH  040%=      5-min Rain = 0
KMC4 120215Z 14008KT 31/16 A3001 RMK A01 T03060155  RH  040%=      5-min Rain = 0
KMC4 120216Z 13008KT 31/16 A3001 RMK A01 T03060156  RH  040%=      5-min Rain = 0
KMC4 120217Z 13008KT 31/16 A3001 RMK A01 T03050156  RH  040%=      5-min Rain = 0
KMC4 120218Z 13007KT 31/16 A3001 RMK A01 T03050156  RH  041%=      5-min Rain = 0
KMC4 120219Z 13008KT 31/16 A3001 RMK A01 T03050156  RH  041%=      5-min Rain = 0
KMC4 120220Z 14008KT 30/16 A3001 RMK A01 T03040156  RH  041%=      5-min Rain = 0
KMC4 120221Z 14007KT 30/16 A3001 RMK A01 T03040156  RH  041%=      5-min Rain = 0
KMC4 120222Z 13008KT 30/16 A3001 RMK A01 T03040156  RH  041%=      5-min Rain = 0
KMC4 120223Z 13007KT 30/16 A3001 RMK A01 T03040156  RH  041%=      5-min Rain = 0
KMC4 120224Z 13007KT 30/16 A3001 RMK A01 T03030156  RH  041%=      5-min Rain = 0
KMC4 120225Z 13007KT 30/16 A3001 RMK A01 T03030156  RH  041%=      5-min Rain = 0
KMC4 120226Z 13008KT 30/16 A3002 RMK A01 T03030155  RH  041%=      5-min Rain = 0
KMC4 120227Z 13006KT 30/16 A3002 RMK A01 T03030156  RH  041%=      5-min Rain = 0
KMC4 120228Z 13007KT 30/16 A3002 RMK A01 T03030156  RH  041%=      5-min Rain = 0
KMC4 120229Z 14007KT 30/16 A3002 RMK A01 T03020156  RH  041%=      5-min Rain = 0
KMC4 120230Z 13006KT 30/16 A3002 RMK A01 T03020156  RH  041%=      5-min Rain = 0
KMC4 120231Z 14006KT 30/16 A3002 RMK A01 T03010156  RH  041%=      5-min Rain = 0
KMC4 120232Z 14007KT 30/16 A3002 RMK A01 T03010155  RH  041%=      5-min Rain = 0
KMC4 120233Z 14007KT 30/16 A3002 RMK A01 T03010156  RH  041%=      5-min Rain = 0
KMC4 120234Z 14006KT 30/16 A3002 RMK A01 T03010155  RH  041%=      5-min Rain = 0
KMC4 120235Z 14006KT 30/16 A3002 RMK A01 T03000155  RH  041%=      5-min Rain = 0
KMC4 120236Z 13006KT 30/16 A3002 RMK A01 T03000156  RH  042%=      5-min Rain = 0
KMC4 120237Z 13006KT 30/16 A3002 RMK A01 T02990156  RH  042%=      5-min Rain = 0
KMC4 120238Z 14006KT 30/16 A3002 RMK A01 T02990156  RH  042%=      5-min Rain = 0
KMC4 120239Z 13007KT 30/16 A3002 RMK A01 T02990156  RH  042%=      5-min Rain = 0
KMC4 120240Z 14006KT 30/16 A3003 RMK A01 T02980155  RH  042%=      5-min Rain = 0
KMC4 120241Z 13006KT 30/16 A3003 RMK A01 T02980155  RH  042%=      5-min Rain = 0
KMC4 120242Z 13006KT 30/16 A3003 RMK A01 T02980156  RH  042%=      5-min Rain = 0
KMC4 120243Z 13006KT 30/16 A3003 RMK A01 T02970156  RH  042%=      5-min Rain = 0
KMC4 120244Z 13006KT 30/16 A3003 RMK A01 T02970156  RH  042%=      5-min Rain = 0
KMC4 120245Z 13007KT 30/16 A3003 RMK A01 T02960156  RH  043%=      5-min Rain = 0
KMC4 120246Z 13007KT 30/16 A3003 RMK A01 T02960156  RH  043%=      5-min Rain = 0
KMC4 120247Z 13006KT 30/16 A3003 RMK A01 T02960156  RH  043%=      5-min Rain = 0
KMC4 120248Z 13006KT 30/16 A3003 RMK A01 T02960157  RH  043%=      5-min Rain = 0
KMC4 120249Z 13007KT 30/16 A3003 RMK A01 T02960156  RH  043%=      5-min Rain = 0
KMC4 120250Z 13007KT 30/16 A3003 RMK A01 T02950156  RH  043%=      5-min Rain = 0
KMC4 120251Z 13007KT 30/16 A3003 RMK A01 T02950156  RH  043%=      5-min Rain = 0
KMC4 120252Z 13007KT 30/16 A3003 RMK A01 T02950157  RH  043%=      5-min Rain = 0
KMC4 120253Z 14007KT 29/16 A3003 RMK A01 T02940157  RH  043%=      5-min Rain = 0
KMC4 120254Z 14007KT 29/16 A3003 RMK A01 T02940156  RH  043%=      5-min Rain = 0
KMC4 120255Z 13007KT 29/16 A3003 RMK A01 T02940157  RH  044%=      5-min Rain = 0
KMC4 120256Z 13006KT 29/16 A3003 RMK A01 T02930157  RH  044%=      5-min Rain = 0
KMC4 120257Z 13006KT 29/16 A3003 RMK A01 T02920157  RH  044%=      5-min Rain = 0
KMC4 120258Z 13006KT 29/16 A3003 RMK A01 T02920157  RH  044%=      5-min Rain = 0
KMC4 120259Z 13006KT 29/16 A3003 RMK A01 T02920157  RH  044%=      5-min Rain = 0
KMC4 120300Z 13006KT 29/16 A3003 RMK A01 T02910157  RH  044%=      5-min Rain = 0
KMC4 120301Z 13006KT 29/16 A3004 RMK A01 T02910157  RH  044%=      5-min Rain = 0
KMC4 120302Z 13006KT 29/16 A3004 RMK A01 T02900157  RH  044%=      5-min Rain = 0
KMC4 120303Z 13006KT 29/16 A3004 RMK A01 T02900157  RH  044%=      5-min Rain = 0
KMC4 120304Z 13006KT 29/16 A3004 RMK A01 T02900157  RH  044%=      5-min Rain = 0
KMC4 120305Z 13006KT 29/16 A3004 RMK A01 T02900157  RH  045%=      5-min Rain = 0
KMC4 120306Z 13006KT 29/16 A3004 RMK A01 T02900157  RH  045%=      5-min Rain = 0
KMC4 120307Z 13006KT 29/16 A3004 RMK A01 T02890158  RH  045%=      5-min Rain = 0
KMC4 120308Z 13006KT 29/16 A3004 RMK A01 T02890158  RH  045%=      5-min Rain = 0
KMC4 120309Z 14006KT 29/16 A3004 RMK A01 T02890158  RH  045%=      5-min Rain = 0
KMC4 120310Z 13006KT 29/16 A3004 RMK A01 T02880158  RH  045%=      5-min Rain = 0
KMC4 120311Z 13006KT 29/16 A3004 RMK A01 T02880157  RH  045%=      5-min Rain = 0
KMC4 120312Z 13005KT 29/16 A3004 RMK A01 T02880157  RH  045%=      5-min Rain = 0
KMC4 120313Z 13005KT 29/16 A3004 RMK A01 T02880158  RH  045%=      5-min Rain = 0
KMC4 120314Z 13005KT 29/16 A3004 RMK A01 T02870157  RH  045%=      5-min Rain = 0
KMC4 120315Z 13005KT 29/16 A3004 RMK A01 T02880158  RH  045%=      5-min Rain = 0
KMC4 120316Z 13005KT 29/16 A3004 RMK A01 T02870158  RH  045%=      5-min Rain = 0
KMC4 120317Z 13005KT 29/16 A3004 RMK A01 T02870157  RH  045%=      5-min Rain = 0
KMC4 120318Z 13005KT 29/16 A3004 RMK A01 T02860158  RH  046%=      5-min Rain = 0
KMC4 120319Z 13005KT 29/16 A3004 RMK A01 T02860157  RH  046%=      5-min Rain = 0
KMC4 120320Z 13004KT 29/16 A3004 RMK A01 T02860158  RH  046%=      5-min Rain = 0
KMC4 120321Z 13004KT 29/16 A3004 RMK A01 T02860158  RH  046%=      5-min Rain = 0
KMC4 120322Z 13004KT 29/16 A3004 RMK A01 T02850158  RH  046%=      5-min Rain = 0
KMC4 120323Z 13004KT 29/16 A3004 RMK A01 T02850158  RH  046%=      5-min Rain = 0
KMC4 120324Z 12004KT 29/16 A3004 RMK A01 T02850158  RH  046%=      5-min Rain = 0
KMC4 120325Z 13004KT 29/16 A3005 RMK A01 T02850158  RH  046%=      5-min Rain = 0
KMC4 120326Z 13004KT 29/16 A3005 RMK A01 T02850158  RH  046%=      5-min Rain = 0
KMC4 120327Z 13004KT 29/16 A3005 RMK A01 T02850158  RH  046%=      5-min Rain = 0
KMC4 120328Z 13004KT 28/16 A3005 RMK A01 T02840158  RH  046%=      5-min Rain = 0
KMC4 120329Z 13004KT 28/16 A3005 RMK A01 T02840158  RH  046%=      5-min Rain = 0
KMC4 120330Z 13004KT 28/16 A3005 RMK A01 T02840158  RH  046%=      5-min Rain = 0
KMC4 120331Z 13005KT 28/16 A3005 RMK A01 T02830158  RH  046%=      5-min Rain = 0
KMC4 120332Z 12005KT 28/16 A3005 RMK A01 T02830157  RH  046%=      5-min Rain = 0
KMC4 120333Z 12005KT 28/16 A3005 RMK A01 T02830157  RH  046%=      5-min Rain = 0
KMC4 120334Z 12005KT 28/16 A3005 RMK A01 T02830157  RH  046%=      5-min Rain = 0
KMC4 120335Z 12004KT 28/16 A3005 RMK A01 T02840157  RH  046%=      5-min Rain = 0
KMC4 120336Z 12005KT 28/16 A3005 RMK A01 T02830157  RH  046%=      5-min Rain = 0
KMC4 120337Z 12005KT 28/16 A3005 RMK A01 T02830156  RH  046%=      5-min Rain = 0
KMC4 120338Z 12004KT 28/16 A3005 RMK A01 T02840156  RH  046%=      5-min Rain = 0
KMC4 120339Z 12004KT 28/16 A3005 RMK A01 T02840157  RH  046%=      5-min Rain = 0
KMC4 120340Z 11004KT 28/16 A3005 RMK A01 T02840157  RH  046%=      5-min Rain = 0
KMC4 120341Z 11004KT 28/16 A3005 RMK A01 T02840156  RH  046%=      5-min Rain = 0
KMC4 120342Z 11004KT 28/16 A3005 RMK A01 T02840155  RH  045%=      5-min Rain = 0
KMC4 120343Z 11004KT 29/16 A3005 RMK A01 T02850155  RH  045%=      5-min Rain = 0
KMC4 120344Z 11004KT 29/16 A3005 RMK A01 T02850155  RH  045%=      5-min Rain = 0
KMC4 120345Z 11004KT 29/16 A3005 RMK A01 T02860155  RH  045%=      5-min Rain = 0
KMC4 120346Z 10004KT 29/16 A3005 RMK A01 T02860155  RH  045%=      5-min Rain = 0
KMC4 120347Z 10004KT 29/16 A3005 RMK A01 T02850155  RH  045%=      5-min Rain = 0
KMC4 120348Z 11004KT 29/16 A3005 RMK A01 T02850155  RH  045%=      5-min Rain = 0
KMC4 120349Z 10004KT 29/15 A3005 RMK A01 T02850154  RH  045%=      5-min Rain = 0
KMC4 120350Z 10004KT 29/16 A3005 RMK A01 T02850155  RH  045%=      5-min Rain = 0
KMC4 120351Z 10004KT 28/16 A3005 RMK A01 T02840155  RH  046%=      5-min Rain = 0
KMC4 120352Z 10004KT 28/16 A3005 RMK A01 T02830155  RH  046%=      5-min Rain = 0
KMC4 120353Z 09004KT 28/16 A3005 RMK A01 T02830155  RH  046%=      5-min Rain = 0
KMC4 120354Z 09004KT 28/16 A3006 RMK A01 T02820155  RH  046%=      5-min Rain = 0
KMC4 120355Z 09004KT 28/16 A3006 RMK A01 T02820155  RH  046%=      5-min Rain = 0
KMC4 120356Z 09004KT 28/16 A3006 RMK A01 T02820155  RH  046%=      5-min Rain = 0
KMC4 120357Z 09004KT 28/15 A3006 RMK A01 T02820154  RH  046%=      5-min Rain = 0
KMC4 120358Z 09004KT 28/15 A3006 RMK A01 T02820154  RH  046%=      5-min Rain = 0
KMC4 120359Z 09004KT 28/15 A3006 RMK A01 T02810154  RH  046%=      5-min Rain = 0
KMC4 120400Z 09004KT 28/15 A3006 RMK A01 T02810154  RH  046%=      5-min Rain = 0
KMC4 120401Z 09004KT 28/15 A3006 RMK A01 T02810154  RH  046%=      5-min Rain = 0
KMC4 120402Z 09004KT 28/15 A3006 RMK A01 T02810154  RH  046%=      5-min Rain = 0
KMC4 120403Z 09004KT 28/15 A3006 RMK A01 T02810154  RH  046%=      5-min Rain = 0
KMC4 120404Z 09004KT 28/15 A3006 RMK A01 T02800154  RH  046%=      5-min Rain = 0
KMC4 120405Z 09004KT 28/15 A3006 RMK A01 T02800153  RH  046%=      5-min Rain = 0
KMC4 120406Z 09005KT 28/15 A3006 RMK A01 T02800153  RH  046%=      5-min Rain = 0
KMC4 120407Z 09004KT 28/15 A3006 RMK A01 T02800153  RH  046%=      5-min Rain = 0
KMC4 120408Z 09004KT 28/15 A3006 RMK A01 T02800153  RH  046%=      5-min Rain = 0
KMC4 120409Z 09004KT 28/15 A3006 RMK A01 T02800153  RH  046%=      5-min Rain = 0
KMC4 120410Z 09004KT 28/15 A3006 RMK A01 T02800152  RH  046%=      5-min Rain = 0
KMC4 120411Z 09004KT 28/15 A3006 RMK A01 T02800152  RH  046%=      5-min Rain = 0
KMC4 120412Z 09004KT 28/15 A3006 RMK A01 T02800152  RH  045%=      5-min Rain = 0
KMC4 120413Z 09005KT 28/15 A3007 RMK A01 T02810152  RH  046%=      5-min Rain = 0
KMC4 120414Z 10005KT 28/15 A3007 RMK A01 T02800152  RH  045%=      5-min Rain = 0
KMC4 120415Z 10005KT 28/15 A3007 RMK A01 T02800152  RH  045%=      5-min Rain = 0
KMC4 120416Z 10005KT 28/15 A3007 RMK A01 T02800151  RH  045%=      5-min Rain = 0
KMC4 120417Z 10006KT 28/15 A3007 RMK A01 T02810151  RH  045%=      5-min Rain = 0
KMC4 120418Z 10006KT 28/15 A3007 RMK A01 T02810151  RH  045%=      5-min Rain = 0
KMC4 120419Z 10005KT 28/15 A3007 RMK A01 T02820151  RH  045%=      5-min Rain = 0
KMC4 120420Z 10005KT 28/15 A3007 RMK A01 T02820151  RH  045%=      5-min Rain = 0
KMC4 120421Z 10005KT 28/15 A3007 RMK A01 T02820151  RH  045%=      5-min Rain = 0
KMC4 120422Z 10004KT 28/15 A3007 RMK A01 T02810151  RH  045%=      5-min Rain = 0
KMC4 120423Z 10005KT 28/15 A3007 RMK A01 T02810151  RH  045%=      5-min Rain = 0
KMC4 120424Z 10004KT 28/15 A3007 RMK A01 T02810151  RH  045%=      5-min Rain = 0
KMC4 120425Z 11004KT 28/15 A3007 RMK A01 T02810152  RH  045%=      5-min Rain = 0
KMC4 120426Z 10005KT 28/15 A3007 RMK A01 T02810152  RH  045%=      5-min Rain = 0
KMC4 120427Z 10005KT 28/15 A3007 RMK A01 T02800152  RH  045%=      5-min Rain = 0
KMC4 120428Z 10005KT 28/15 A3007 RMK A01 T02800152  RH  046%=      5-min Rain = 0
KMC4 120429Z 11005KT 28/15 A3007 RMK A01 T02800152  RH  046%=      5-min Rain = 0
KMC4 120430Z 11005KT 28/15 A3007 RMK A01 T02790152  RH  046%=      5-min Rain = 0
KMC4 120431Z 11005KT 28/15 A3006 RMK A01 T02790152  RH  046%=      5-min Rain = 0
KMC4 120432Z 11005KT 28/15 A3006 RMK A01 T02790152  RH  046%=      5-min Rain = 0
KMC4 120433Z 11005KT 28/15 A3006 RMK A01 T02790152  RH  046%=      5-min Rain = 0
KMC4 120434Z 11005KT 28/15 A3007 RMK A01 T02800152  RH  046%=      5-min Rain = 0
KMC4 120435Z 11004KT 28/15 A3007 RMK A01 T02790152  RH  046%=      5-min Rain = 0
KMC4 120436Z 10005KT 28/15 A3007 RMK A01 T02800152  RH  046%=      5-min Rain = 0
KMC4 120437Z 11005KT 28/15 A3007 RMK A01 T02790152  RH  046%=      5-min Rain = 0
KMC4 120438Z 10005KT 28/15 A3007 RMK A01 T02790152  RH  046%=      5-min Rain = 0
KMC4 120439Z 10005KT 28/15 A3007 RMK A01 T02790152  RH  046%=      5-min Rain = 0
KMC4 120440Z 10005KT 28/15 A3007 RMK A01 T02790152  RH  046%=      5-min Rain = 0
KMC4 120441Z 10005KT 28/15 A3007 RMK A01 T02790152  RH  046%=      5-min Rain = 0
KMC4 120442Z 10005KT 28/15 A3007 RMK A01 T02790152  RH  046%=      5-min Rain = 0
KMC4 120443Z 09005KT 28/15 A3007 RMK A01 T02790152  RH  046%=      5-min Rain = 0
KMC4 120444Z 10005KT 28/15 A3007 RMK A01 T02790152  RH  046%=      5-min Rain = 0
KMC4 120445Z 10005KT 28/15 A3007 RMK A01 T02780152  RH  046%=      5-min Rain = 0
KMC4 120446Z 10006KT 28/15 A3007 RMK A01 T02780152  RH  046%=      5-min Rain = 0
KMC4 120447Z 11006KT 28/15 A3007 RMK A01 T02780152  RH  046%=      5-min Rain = 0
KMC4 120448Z 11005KT 28/15 A3007 RMK A01 T02780152  RH  046%=      5-min Rain = 0
KMC4 120449Z 11005KT 28/15 A3007 RMK A01 T02780153  RH  046%=      5-min Rain = 0
KMC4 120450Z 11005KT 28/15 A3007 RMK A01 T02780153  RH  047%=      5-min Rain = 0
KMC4 120451Z 11005KT 28/15 A3007 RMK A01 T02770153  RH  047%=      5-min Rain = 0
KMC4 120452Z 11004KT 28/15 A3007 RMK A01 T02770153  RH  047%=      5-min Rain = 0
KMC4 120453Z 11004KT 28/15 A3007 RMK A01 T02770154  RH  047%=      5-min Rain = 0
KMC4 120454Z 11004KT 28/15 A3007 RMK A01 T02760153  RH  047%=      5-min Rain = 0
KMC4 120455Z 11004KT 28/15 A3007 RMK A01 T02750153  RH  047%=      5-min Rain = 0
KMC4 120456Z 11004KT 28/15 A3007 RMK A01 T02750154  RH  047%=      5-min Rain = 0
KMC4 120457Z 10003KT 28/15 A3007 RMK A01 T02750154  RH  048%=      5-min Rain = 0
KMC4 120458Z 10003KT 27/15 A3007 RMK A01 T02740154  RH  048%=      5-min Rain = 0
KMC4 120459Z 10004KT 27/15 A3007 RMK A01 T02740154  RH  048%=      5-min Rain = 0
KMC4 120500Z 11004KT 27/15 A3007 RMK A01 T02740153  RH  048%=      5-min Rain = 0

Page generated in 0.0342 seconds.